<?xml version="1.0" encoding="UTF-8" standalone="no" ?>
<gpx xmlns="http://www.topografix.com/GPX/1/1" xmlns:xsi="http://www.w3.org/2001/XMLSchema-instance" xsi:schemaLocation="http://www.topografix.com/GPX/1/1 http://www.topografix.com/GPX/1/1/gpx.xsd" version="1.1" creator="VisuGPX - https://www.visugpx.com">
  <metadata>
    <name>Vaumarcus, Onnens</name>
  </metadata>
  <trk>
    <name><![CDATA[Vaumarcus, Onnens_1]]></name>
    <trkseg>
      <trkpt lat="46.87777" lon="6.76">
        <ele>432.07</ele>
        <time>2021-03-28T09:15:00.000Z</time>
      </trkpt>
      <trkpt lat="46.87774" lon="6.75995">
        <ele>432.41</ele>
        <time>2021-03-28T09:15:09.551Z</time>
      </trkpt>
      <trkpt lat="46.87777" lon="6.75987">
        <ele>433.04</ele>
        <time>2021-03-28T09:15:26.035Z</time>
      </trkpt>
      <trkpt lat="46.8778" lon="6.75974">
        <ele>433.88</ele>
        <time>2021-03-28T09:15:48.312Z</time>
      </trkpt>
      <trkpt lat="46.87779" lon="6.7597">
        <ele>434.41</ele>
        <time>2021-03-28T09:15:59.612Z</time>
      </trkpt>
      <trkpt lat="46.87778" lon="6.75965">
        <ele>434.6</ele>
        <time>2021-03-28T09:16:06.018Z</time>
      </trkpt>
      <trkpt lat="46.87779" lon="6.7596">
        <ele>435.08</ele>
        <time>2021-03-28T09:16:19.840Z</time>
      </trkpt>
      <trkpt lat="46.87784" lon="6.75943">
        <ele>434.7</ele>
        <time>2021-03-28T09:16:23.412Z</time>
      </trkpt>
      <trkpt lat="46.8779" lon="6.75919">
        <ele>434.32</ele>
        <time>2021-03-28T09:16:28.814Z</time>
      </trkpt>
      <trkpt lat="46.8779" lon="6.75893">
        <ele>436.13</ele>
        <time>2021-03-28T09:17:16.172Z</time>
      </trkpt>
      <trkpt lat="46.87789" lon="6.75889">
        <ele>436.27</ele>
        <time>2021-03-28T09:17:21.231Z</time>
      </trkpt>
      <trkpt lat="46.8779" lon="6.75864">
        <ele>436.98</ele>
        <time>2021-03-28T09:17:49.010Z</time>
      </trkpt>
      <trkpt lat="46.87789" lon="6.75837">
        <ele>437.32</ele>
        <time>2021-03-28T09:18:11.378Z</time>
      </trkpt>
      <trkpt lat="46.8779" lon="6.75823">
        <ele>438.03</ele>
        <time>2021-03-28T09:18:31.434Z</time>
      </trkpt>
      <trkpt lat="46.87793" lon="6.75807">
        <ele>438.17</ele>
        <time>2021-03-28T09:18:44.301Z</time>
      </trkpt>
      <trkpt lat="46.87794" lon="6.75804">
        <ele>438.25</ele>
        <time>2021-03-28T09:18:47.683Z</time>
      </trkpt>
      <trkpt lat="46.87796" lon="6.758">
        <ele>439.14</ele>
        <time>2021-03-28T09:19:00.832Z</time>
      </trkpt>
      <trkpt lat="46.87803" lon="6.7578">
        <ele>439.84</ele>
        <time>2021-03-28T09:19:27.095Z</time>
      </trkpt>
      <trkpt lat="46.8781" lon="6.75761">
        <ele>440.56</ele>
        <time>2021-03-28T09:19:52.852Z</time>
      </trkpt>
      <trkpt lat="46.87817" lon="6.7575">
        <ele>441.36</ele>
        <time>2021-03-28T09:20:14.967Z</time>
      </trkpt>
      <trkpt lat="46.87825" lon="6.75738">
        <ele>442.75</ele>
        <time>2021-03-28T09:20:52.810Z</time>
      </trkpt>
      <trkpt lat="46.8783" lon="6.75731">
        <ele>443.84</ele>
        <time>2021-03-28T09:21:19.671Z</time>
      </trkpt>
      <trkpt lat="46.87836" lon="6.75726">
        <ele>443.88</ele>
        <time>2021-03-28T09:21:27.009Z</time>
      </trkpt>
      <trkpt lat="46.87839" lon="6.75724">
        <ele>443.92</ele>
        <time>2021-03-28T09:21:30.741Z</time>
      </trkpt>
      <trkpt lat="46.8784" lon="6.75721">
        <ele>444.23</ele>
        <time>2021-03-28T09:21:39.596Z</time>
      </trkpt>
      <trkpt lat="46.87842" lon="6.75699">
        <ele>447.87</ele>
        <time>2021-03-28T09:22:38.478Z</time>
      </trkpt>
      <trkpt lat="46.87842" lon="6.75653">
        <ele>455.5</ele>
        <time>2021-03-28T09:24:40.519Z</time>
      </trkpt>
      <trkpt lat="46.87842" lon="6.75616">
        <ele>462.06</ele>
        <time>2021-03-28T09:26:18.683Z</time>
      </trkpt>
      <trkpt lat="46.87841" lon="6.75594">
        <ele>466.12</ele>
        <time>2021-03-28T09:27:17.180Z</time>
      </trkpt>
      <trkpt lat="46.8784" lon="6.75584">
        <ele>467.33</ele>
        <time>2021-03-28T09:27:43.993Z</time>
      </trkpt>
      <trkpt lat="46.87835" lon="6.75561">
        <ele>471.11</ele>
        <time>2021-03-28T09:28:48.026Z</time>
      </trkpt>
      <trkpt lat="46.87832" lon="6.75547">
        <ele>473.91</ele>
        <time>2021-03-28T09:29:26.951Z</time>
      </trkpt>
      <trkpt lat="46.8783" lon="6.75538">
        <ele>476.31</ele>
        <time>2021-03-28T09:29:52.059Z</time>
      </trkpt>
      <trkpt lat="46.87826" lon="6.7552">
        <ele>480.93</ele>
        <time>2021-03-28T09:30:42.275Z</time>
      </trkpt>
      <trkpt lat="46.87825" lon="6.75514">
        <ele>483.87</ele>
        <time>2021-03-28T09:30:58.660Z</time>
      </trkpt>
      <trkpt lat="46.87826" lon="6.7551">
        <ele>484.06</ele>
        <time>2021-03-28T09:31:04.352Z</time>
      </trkpt>
      <trkpt lat="46.87822" lon="6.75508">
        <ele>484.53</ele>
        <time>2021-03-28T09:31:16.767Z</time>
      </trkpt>
      <trkpt lat="46.8782" lon="6.75506">
        <ele>484.86</ele>
        <time>2021-03-28T09:31:26.170Z</time>
      </trkpt>
      <trkpt lat="46.87818" lon="6.75502">
        <ele>485.11</ele>
        <time>2021-03-28T09:31:33.231Z</time>
      </trkpt>
      <trkpt lat="46.87825" lon="6.75495">
        <ele>485.86</ele>
        <time>2021-03-28T09:31:53.175Z</time>
      </trkpt>
      <trkpt lat="46.87833" lon="6.75484">
        <ele>486.86</ele>
        <time>2021-03-28T09:32:19.608Z</time>
      </trkpt>
      <trkpt lat="46.87839" lon="6.75474">
        <ele>487.7</ele>
        <time>2021-03-28T09:32:41.759Z</time>
      </trkpt>
      <trkpt lat="46.87845" lon="6.75465">
        <ele>488.57</ele>
        <time>2021-03-28T09:33:04.521Z</time>
      </trkpt>
      <trkpt lat="46.87849" lon="6.75456">
        <ele>489.29</ele>
        <time>2021-03-28T09:33:23.378Z</time>
      </trkpt>
      <trkpt lat="46.87851" lon="6.7545">
        <ele>489.91</ele>
        <time>2021-03-28T09:33:41.088Z</time>
      </trkpt>
      <trkpt lat="46.87852" lon="6.75443">
        <ele>490.52</ele>
        <time>2021-03-28T09:33:57.954Z</time>
      </trkpt>
      <trkpt lat="46.87852" lon="6.75436">
        <ele>491.19</ele>
        <time>2021-03-28T09:34:16.525Z</time>
      </trkpt>
      <trkpt lat="46.87851" lon="6.75429">
        <ele>491.95</ele>
        <time>2021-03-28T09:34:35.498Z</time>
      </trkpt>
      <trkpt lat="46.8785" lon="6.75422">
        <ele>492.72</ele>
        <time>2021-03-28T09:34:54.471Z</time>
      </trkpt>
      <trkpt lat="46.87848" lon="6.75416">
        <ele>493.28</ele>
        <time>2021-03-28T09:35:09.808Z</time>
      </trkpt>
      <trkpt lat="46.87845" lon="6.75412">
        <ele>493.78</ele>
        <time>2021-03-28T09:35:23.529Z</time>
      </trkpt>
      <trkpt lat="46.87842" lon="6.75408">
        <ele>494</ele>
        <time>2021-03-28T09:35:30.873Z</time>
      </trkpt>
      <trkpt lat="46.8783" lon="6.75394">
        <ele>496.06</ele>
        <time>2021-03-28T09:36:30.446Z</time>
      </trkpt>
      <trkpt lat="46.87818" lon="6.75381">
        <ele>497.7</ele>
        <time>2021-03-28T09:37:13.661Z</time>
      </trkpt>
      <trkpt lat="46.87813" lon="6.75377">
        <ele>498.38</ele>
        <time>2021-03-28T09:37:32.033Z</time>
      </trkpt>
      <trkpt lat="46.87803" lon="6.75369">
        <ele>499.44</ele>
        <time>2021-03-28T09:37:59.954Z</time>
      </trkpt>
      <trkpt lat="46.87799" lon="6.75365">
        <ele>499.89</ele>
        <time>2021-03-28T09:38:11.810Z</time>
      </trkpt>
      <trkpt lat="46.87791" lon="6.75358">
        <ele>500.75</ele>
        <time>2021-03-28T09:38:34.492Z</time>
      </trkpt>
      <trkpt lat="46.87772" lon="6.75341">
        <ele>502.21</ele>
        <time>2021-03-28T09:39:18.126Z</time>
      </trkpt>
      <trkpt lat="46.87768" lon="6.75338">
        <ele>502.42</ele>
        <time>2021-03-28T09:39:25.869Z</time>
      </trkpt>
      <trkpt lat="46.87764" lon="6.75335">
        <ele>502.72</ele>
        <time>2021-03-28T09:39:34.752Z</time>
      </trkpt>
      <trkpt lat="46.87764" lon="6.75332">
        <ele>502.98</ele>
        <time>2021-03-28T09:39:42.014Z</time>
      </trkpt>
      <trkpt lat="46.87764" lon="6.75328">
        <ele>503.23</ele>
        <time>2021-03-28T09:39:48.618Z</time>
      </trkpt>
      <trkpt lat="46.87753" lon="6.7531">
        <ele>504.8</ele>
        <time>2021-03-28T09:40:29.848Z</time>
      </trkpt>
      <trkpt lat="46.87748" lon="6.75301">
        <ele>505.72</ele>
        <time>2021-03-28T09:40:54.439Z</time>
      </trkpt>
      <trkpt lat="46.87747" lon="6.75299">
        <ele>505.82</ele>
        <time>2021-03-28T09:40:57.607Z</time>
      </trkpt>
      <trkpt lat="46.87743" lon="6.75292">
        <ele>506.52</ele>
        <time>2021-03-28T09:41:16.138Z</time>
      </trkpt>
      <trkpt lat="46.87741" lon="6.75283">
        <ele>507.17</ele>
        <time>2021-03-28T09:41:33.145Z</time>
      </trkpt>
      <trkpt lat="46.87737" lon="6.75268">
        <ele>508.96</ele>
        <time>2021-03-28T09:42:15.863Z</time>
      </trkpt>
      <trkpt lat="46.87733" lon="6.75255">
        <ele>510.17</ele>
        <time>2021-03-28T09:42:49.219Z</time>
      </trkpt>
      <trkpt lat="46.87731" lon="6.7525">
        <ele>510.92</ele>
        <time>2021-03-28T09:43:04.589Z</time>
      </trkpt>
      <trkpt lat="46.87726" lon="6.75247">
        <ele>511.49</ele>
        <time>2021-03-28T09:43:19.527Z</time>
      </trkpt>
      <trkpt lat="46.8772" lon="6.75246">
        <ele>512.5</ele>
        <time>2021-03-28T09:43:42.966Z</time>
      </trkpt>
      <trkpt lat="46.87697" lon="6.75245">
        <ele>516.26</ele>
        <time>2021-03-28T09:45:12.276Z</time>
      </trkpt>
      <trkpt lat="46.87671" lon="6.75244">
        <ele>517.4</ele>
        <time>2021-03-28T09:45:56.004Z</time>
      </trkpt>
      <trkpt lat="46.87672" lon="6.75235">
        <ele>518.2</ele>
        <time>2021-03-28T09:46:18.541Z</time>
      </trkpt>
      <trkpt lat="46.87675" lon="6.75216">
        <ele>520.14</ele>
        <time>2021-03-28T09:47:10.278Z</time>
      </trkpt>
      <trkpt lat="46.87676" lon="6.75206">
        <ele>521.21</ele>
        <time>2021-03-28T09:47:37.092Z</time>
      </trkpt>
      <trkpt lat="46.87675" lon="6.75198">
        <ele>522.42</ele>
        <time>2021-03-28T09:47:58.669Z</time>
      </trkpt>
      <trkpt lat="46.87673" lon="6.75193">
        <ele>523.23</ele>
        <time>2021-03-28T09:48:14.039Z</time>
      </trkpt>
      <trkpt lat="46.8767" lon="6.75187">
        <ele>523.84</ele>
        <time>2021-03-28T09:48:30.564Z</time>
      </trkpt>
      <trkpt lat="46.87668" lon="6.75183">
        <ele>524.24</ele>
        <time>2021-03-28T09:48:41.324Z</time>
      </trkpt>
      <trkpt lat="46.87662" lon="6.75188">
        <ele>523.77</ele>
        <time>2021-03-28T09:48:42.862Z</time>
      </trkpt>
      <trkpt lat="46.87659" lon="6.75179">
        <ele>524.29</ele>
        <time>2021-03-28T09:48:57.375Z</time>
      </trkpt>
      <trkpt lat="46.87655" lon="6.75174">
        <ele>524.67</ele>
        <time>2021-03-28T09:49:08.210Z</time>
      </trkpt>
      <trkpt lat="46.8765" lon="6.7517">
        <ele>525.01</ele>
        <time>2021-03-28T09:49:18.915Z</time>
      </trkpt>
      <trkpt lat="46.87634" lon="6.75163">
        <ele>526.15</ele>
        <time>2021-03-28T09:49:52.293Z</time>
      </trkpt>
      <trkpt lat="46.87603" lon="6.75151">
        <ele>527.55</ele>
        <time>2021-03-28T09:50:46.065Z</time>
      </trkpt>
      <trkpt lat="46.87584" lon="6.75142">
        <ele>528.08</ele>
        <time>2021-03-28T09:51:12.615Z</time>
      </trkpt>
      <trkpt lat="46.87561" lon="6.75131">
        <ele>528.8</ele>
        <time>2021-03-28T09:51:46.088Z</time>
      </trkpt>
      <trkpt lat="46.87556" lon="6.75129">
        <ele>529.06</ele>
        <time>2021-03-28T09:51:55.218Z</time>
      </trkpt>
      <trkpt lat="46.87555" lon="6.75129">
        <ele>529.06</ele>
        <time>2021-03-28T09:51:56.224Z</time>
      </trkpt>
      <trkpt lat="46.87543" lon="6.75123">
        <ele>529.33</ele>
        <time>2021-03-28T09:52:12.077Z</time>
      </trkpt>
      <trkpt lat="46.87537" lon="6.7512">
        <ele>529.42</ele>
        <time>2021-03-28T09:52:19.411Z</time>
      </trkpt>
      <trkpt lat="46.87531" lon="6.75117">
        <ele>529.75</ele>
        <time>2021-03-28T09:52:30.719Z</time>
      </trkpt>
      <trkpt lat="46.87519" lon="6.75109">
        <ele>530.39</ele>
        <time>2021-03-28T09:52:53.701Z</time>
      </trkpt>
      <trkpt lat="46.87496" lon="6.75092">
        <ele>531.3</ele>
        <time>2021-03-28T09:53:32.030Z</time>
      </trkpt>
      <trkpt lat="46.87477" lon="6.75077">
        <ele>532.25</ele>
        <time>2021-03-28T09:54:08.424Z</time>
      </trkpt>
      <trkpt lat="46.8745" lon="6.75057">
        <ele>533.72</ele>
        <time>2021-03-28T09:55:01.181Z</time>
      </trkpt>
      <trkpt lat="46.87413" lon="6.75031">
        <ele>535.1</ele>
        <time>2021-03-28T09:56:00.866Z</time>
      </trkpt>
      <trkpt lat="46.87376" lon="6.75006">
        <ele>536.16</ele>
        <time>2021-03-28T09:56:54.703Z</time>
      </trkpt>
      <trkpt lat="46.87296" lon="6.74955">
        <ele>536.79</ele>
        <time>2021-03-28T09:58:28.735Z</time>
      </trkpt>
      <trkpt lat="46.87264" lon="6.74935">
        <ele>536.89</ele>
        <time>2021-03-28T09:59:04.699Z</time>
      </trkpt>
      <trkpt lat="46.8722" lon="6.74909">
        <ele>537.22</ele>
        <time>2021-03-28T09:59:55.699Z</time>
      </trkpt>
      <trkpt lat="46.87186" lon="6.74889">
        <ele>537.34</ele>
        <time>2021-03-28T10:00:33.716Z</time>
      </trkpt>
      <trkpt lat="46.87176" lon="6.74883">
        <ele>537.45</ele>
        <time>2021-03-28T10:00:45.710Z</time>
      </trkpt>
      <trkpt lat="46.87131" lon="6.74856">
        <ele>537.9</ele>
        <time>2021-03-28T10:01:39.185Z</time>
      </trkpt>
      <trkpt lat="46.8712" lon="6.74849">
        <ele>537.99</ele>
        <time>2021-03-28T10:01:52.147Z</time>
      </trkpt>
      <trkpt lat="46.87102" lon="6.74834">
        <ele>538.09</ele>
        <time>2021-03-28T10:02:13.958Z</time>
      </trkpt>
      <trkpt lat="46.8709" lon="6.74825">
        <ele>538.26</ele>
        <time>2021-03-28T10:02:29.299Z</time>
      </trkpt>
      <trkpt lat="46.87077" lon="6.74815">
        <ele>538.28</ele>
        <time>2021-03-28T10:02:44.266Z</time>
      </trkpt>
      <trkpt lat="46.87063" lon="6.74804">
        <ele>538.5</ele>
        <time>2021-03-28T10:03:02.580Z</time>
      </trkpt>
      <trkpt lat="46.87054" lon="6.74798">
        <ele>538.72</ele>
        <time>2021-03-28T10:03:15.079Z</time>
      </trkpt>
      <trkpt lat="46.87043" lon="6.74793">
        <ele>538.76</ele>
        <time>2021-03-28T10:03:27.051Z</time>
      </trkpt>
      <trkpt lat="46.87028" lon="6.74782">
        <ele>538.69</ele>
        <time>2021-03-28T10:03:42.921Z</time>
      </trkpt>
      <trkpt lat="46.87023" lon="6.7478">
        <ele>538.77</ele>
        <time>2021-03-28T10:03:48.996Z</time>
      </trkpt>
      <trkpt lat="46.87022" lon="6.7478">
        <ele>538.77</ele>
        <time>2021-03-28T10:03:50.003Z</time>
      </trkpt>
      <trkpt lat="46.87015" lon="6.74777">
        <ele>538.85</ele>
        <time>2021-03-28T10:03:58.162Z</time>
      </trkpt>
      <trkpt lat="46.86999" lon="6.74768">
        <ele>539.44</ele>
        <time>2021-03-28T10:04:23.354Z</time>
      </trkpt>
      <trkpt lat="46.86987" lon="6.74761">
        <ele>540.02</ele>
        <time>2021-03-28T10:04:45.350Z</time>
      </trkpt>
      <trkpt lat="46.86969" lon="6.74747">
        <ele>540.88</ele>
        <time>2021-03-28T10:05:18.783Z</time>
      </trkpt>
      <trkpt lat="46.86953" lon="6.74734">
        <ele>542</ele>
        <time>2021-03-28T10:05:53.535Z</time>
      </trkpt>
      <trkpt lat="46.86904" lon="6.74681">
        <ele>543.98</ele>
        <time>2021-03-28T10:07:20.842Z</time>
      </trkpt>
      <trkpt lat="46.86888" lon="6.74667">
        <ele>544.06</ele>
        <time>2021-03-28T10:07:40.371Z</time>
      </trkpt>
      <trkpt lat="46.86878" lon="6.74654">
        <ele>544.23</ele>
        <time>2021-03-28T10:07:55.607Z</time>
      </trkpt>
      <trkpt lat="46.86864" lon="6.74638">
        <ele>544.42</ele>
        <time>2021-03-28T10:08:15.426Z</time>
      </trkpt>
      <trkpt lat="46.86849" lon="6.74621">
        <ele>544.51</ele>
        <time>2021-03-28T10:08:35.388Z</time>
      </trkpt>
      <trkpt lat="46.86837" lon="6.74605">
        <ele>544.08</ele>
        <time>2021-03-28T10:08:40.151Z</time>
      </trkpt>
      <trkpt lat="46.86826" lon="6.74591">
        <ele>543.67</ele>
        <time>2021-03-28T10:08:44.353Z</time>
      </trkpt>
      <trkpt lat="46.868" lon="6.74553">
        <ele>542.96</ele>
        <time>2021-03-28T10:08:56.047Z</time>
      </trkpt>
      <trkpt lat="46.86783" lon="6.74525">
        <ele>541.99</ele>
        <time>2021-03-28T10:09:02.726Z</time>
      </trkpt>
      <trkpt lat="46.86773" lon="6.74506">
        <ele>541.17</ele>
        <time>2021-03-28T10:09:06.553Z</time>
      </trkpt>
      <trkpt lat="46.8677" lon="6.74499">
        <ele>540.42</ele>
        <time>2021-03-28T10:09:07.811Z</time>
      </trkpt>
      <trkpt lat="46.86754" lon="6.74465">
        <ele>539.36</ele>
        <time>2021-03-28T10:09:15.196Z</time>
      </trkpt>
      <trkpt lat="46.8675" lon="6.74456">
        <ele>539.22</ele>
        <time>2021-03-28T10:09:17.538Z</time>
      </trkpt>
      <trkpt lat="46.86746" lon="6.74448">
        <ele>539.13</ele>
        <time>2021-03-28T10:09:19.859Z</time>
      </trkpt>
      <trkpt lat="46.8674" lon="6.74438">
        <ele>538.92</ele>
        <time>2021-03-28T10:09:22.630Z</time>
      </trkpt>
      <trkpt lat="46.86734" lon="6.7443">
        <ele>538.79</ele>
        <time>2021-03-28T10:09:25.318Z</time>
      </trkpt>
      <trkpt lat="46.86727" lon="6.74423">
        <ele>538.68</ele>
        <time>2021-03-28T10:09:28.235Z</time>
      </trkpt>
      <trkpt lat="46.86722" lon="6.74418">
        <ele>538.58</ele>
        <time>2021-03-28T10:09:30.228Z</time>
      </trkpt>
      <trkpt lat="46.86707" lon="6.74407">
        <ele>538.49</ele>
        <time>2021-03-28T10:09:45.831Z</time>
      </trkpt>
      <trkpt lat="46.86694" lon="6.74399">
        <ele>538.73</ele>
        <time>2021-03-28T10:10:02.643Z</time>
      </trkpt>
      <trkpt lat="46.86687" lon="6.74395">
        <ele>538.92</ele>
        <time>2021-03-28T10:10:12.485Z</time>
      </trkpt>
      <trkpt lat="46.86675" lon="6.74389">
        <ele>539.3</ele>
        <time>2021-03-28T10:10:30.074Z</time>
      </trkpt>
      <trkpt lat="46.86667" lon="6.74385">
        <ele>539.52</ele>
        <time>2021-03-28T10:10:41.244Z</time>
      </trkpt>
      <trkpt lat="46.86662" lon="6.74382">
        <ele>539.69</ele>
        <time>2021-03-28T10:10:48.883Z</time>
      </trkpt>
      <trkpt lat="46.86651" lon="6.74375">
        <ele>540.28</ele>
        <time>2021-03-28T10:11:09.878Z</time>
      </trkpt>
      <trkpt lat="46.86589" lon="6.74307">
        <ele>542.29</ele>
        <time>2021-03-28T10:12:52.159Z</time>
      </trkpt>
      <trkpt lat="46.86574" lon="6.74291">
        <ele>543.05</ele>
        <time>2021-03-28T10:13:22.048Z</time>
      </trkpt>
      <trkpt lat="46.86538" lon="6.74255">
        <ele>543.42</ele>
        <time>2021-03-28T10:14:09.629Z</time>
      </trkpt>
      <trkpt lat="46.86507" lon="6.74221">
        <ele>543.31</ele>
        <time>2021-03-28T10:14:46.995Z</time>
      </trkpt>
      <trkpt lat="46.86493" lon="6.74208">
        <ele>543.29</ele>
        <time>2021-03-28T10:15:03.379Z</time>
      </trkpt>
      <trkpt lat="46.86463" lon="6.74177">
        <ele>543.29</ele>
        <time>2021-03-28T10:15:40.342Z</time>
      </trkpt>
      <trkpt lat="46.8645" lon="6.74164">
        <ele>543.23</ele>
        <time>2021-03-28T10:15:55.314Z</time>
      </trkpt>
      <trkpt lat="46.86439" lon="6.74152">
        <ele>543.44</ele>
        <time>2021-03-28T10:16:11.375Z</time>
      </trkpt>
      <trkpt lat="46.86429" lon="6.7414">
        <ele>543.44</ele>
        <time>2021-03-28T10:16:24.391Z</time>
      </trkpt>
      <trkpt lat="46.86415" lon="6.7412">
        <ele>543.65</ele>
        <time>2021-03-28T10:16:46.230Z</time>
      </trkpt>
      <trkpt lat="46.86402" lon="6.74101">
        <ele>544</ele>
        <time>2021-03-28T10:17:08.632Z</time>
      </trkpt>
      <trkpt lat="46.86402" lon="6.741">
        <ele>544</ele>
        <time>2021-03-28T10:17:09.320Z</time>
      </trkpt>
      <trkpt lat="46.86397" lon="6.74093">
        <ele>544.35</ele>
        <time>2021-03-28T10:17:21.544Z</time>
      </trkpt>
      <trkpt lat="46.8634" lon="6.74">
        <ele>545.18</ele>
        <time>2021-03-28T10:18:55.872Z</time>
      </trkpt>
      <trkpt lat="46.86325" lon="6.73976">
        <ele>543.99</ele>
        <time>2021-03-28T10:19:00.909Z</time>
      </trkpt>
      <trkpt lat="46.86293" lon="6.73925">
        <ele>542.22</ele>
        <time>2021-03-28T10:19:13.315Z</time>
      </trkpt>
      <trkpt lat="46.8626" lon="6.73874">
        <ele>539.55</ele>
        <time>2021-03-28T10:19:24.004Z</time>
      </trkpt>
      <trkpt lat="46.86247" lon="6.73852">
        <ele>538.46</ele>
        <time>2021-03-28T10:19:28.459Z</time>
      </trkpt>
      <trkpt lat="46.86239" lon="6.73837">
        <ele>538.06</ele>
        <time>2021-03-28T10:19:32.104Z</time>
      </trkpt>
      <trkpt lat="46.86232" lon="6.7382">
        <ele>537.78</ele>
        <time>2021-03-28T10:19:36.355Z</time>
      </trkpt>
      <trkpt lat="46.86227" lon="6.7381">
        <ele>537.67</ele>
        <time>2021-03-28T10:19:39.268Z</time>
      </trkpt>
      <trkpt lat="46.8622" lon="6.73798">
        <ele>537.63</ele>
        <time>2021-03-28T10:19:49.538Z</time>
      </trkpt>
      <trkpt lat="46.86206" lon="6.73776">
        <ele>537.62</ele>
        <time>2021-03-28T10:20:10.063Z</time>
      </trkpt>
      <trkpt lat="46.862" lon="6.73767">
        <ele>537.48</ele>
        <time>2021-03-28T10:20:12.899Z</time>
      </trkpt>
      <trkpt lat="46.86192" lon="6.73757">
        <ele>537.25</ele>
        <time>2021-03-28T10:20:16.150Z</time>
      </trkpt>
      <trkpt lat="46.86187" lon="6.73748">
        <ele>537.08</ele>
        <time>2021-03-28T10:20:18.611Z</time>
      </trkpt>
      <trkpt lat="46.8618" lon="6.73732">
        <ele>536.52</ele>
        <time>2021-03-28T10:20:21.836Z</time>
      </trkpt>
      <trkpt lat="46.86159" lon="6.7369">
        <ele>534.22</ele>
        <time>2021-03-28T10:20:29.205Z</time>
      </trkpt>
      <trkpt lat="46.86155" lon="6.73679">
        <ele>533.34</ele>
        <time>2021-03-28T10:20:31.102Z</time>
      </trkpt>
      <trkpt lat="46.86152" lon="6.73668">
        <ele>532.51</ele>
        <time>2021-03-28T10:20:32.905Z</time>
      </trkpt>
      <trkpt lat="46.8615" lon="6.73658">
        <ele>531.89</ele>
        <time>2021-03-28T10:20:34.491Z</time>
      </trkpt>
      <trkpt lat="46.86148" lon="6.73647">
        <ele>531.29</ele>
        <time>2021-03-28T10:20:36.224Z</time>
      </trkpt>
      <trkpt lat="46.86147" lon="6.73633">
        <ele>530.56</ele>
        <time>2021-03-28T10:20:38.367Z</time>
      </trkpt>
      <trkpt lat="46.86147" lon="6.73628">
        <ele>530.28</ele>
        <time>2021-03-28T10:20:39.128Z</time>
      </trkpt>
      <trkpt lat="46.86146" lon="6.73609">
        <ele>529.32</ele>
        <time>2021-03-28T10:20:42.030Z</time>
      </trkpt>
      <trkpt lat="46.86147" lon="6.73589">
        <ele>528.33</ele>
        <time>2021-03-28T10:20:45.083Z</time>
      </trkpt>
      <trkpt lat="46.86149" lon="6.73578">
        <ele>527.83</ele>
        <time>2021-03-28T10:20:46.700Z</time>
      </trkpt>
      <trkpt lat="46.86153" lon="6.73562">
        <ele>527</ele>
        <time>2021-03-28T10:20:49.294Z</time>
      </trkpt>
      <trkpt lat="46.8616" lon="6.73546">
        <ele>525.99</ele>
        <time>2021-03-28T10:20:52.185Z</time>
      </trkpt>
      <trkpt lat="46.86164" lon="6.73532">
        <ele>525.34</ele>
        <time>2021-03-28T10:20:54.368Z</time>
      </trkpt>
      <trkpt lat="46.86168" lon="6.73527">
        <ele>525.13</ele>
        <time>2021-03-28T10:20:55.714Z</time>
      </trkpt>
      <trkpt lat="46.86172" lon="6.73522">
        <ele>524.75</ele>
        <time>2021-03-28T10:20:56.886Z</time>
      </trkpt>
      <trkpt lat="46.86176" lon="6.7352">
        <ele>524.43</ele>
        <time>2021-03-28T10:20:57.827Z</time>
      </trkpt>
      <trkpt lat="46.86179" lon="6.73519">
        <ele>524.19</ele>
        <time>2021-03-28T10:20:58.512Z</time>
      </trkpt>
      <trkpt lat="46.86187" lon="6.73519">
        <ele>523.46</ele>
        <time>2021-03-28T10:21:00.294Z</time>
      </trkpt>
      <trkpt lat="46.8619" lon="6.73518">
        <ele>523.22</ele>
        <time>2021-03-28T10:21:00.979Z</time>
      </trkpt>
      <trkpt lat="46.86193" lon="6.73515">
        <ele>523</ele>
        <time>2021-03-28T10:21:01.756Z</time>
      </trkpt>
      <trkpt lat="46.86193" lon="6.7351">
        <ele>522.44</ele>
        <time>2021-03-28T10:21:02.517Z</time>
      </trkpt>
      <trkpt lat="46.86193" lon="6.73506">
        <ele>521.97</ele>
        <time>2021-03-28T10:21:03.126Z</time>
      </trkpt>
      <trkpt lat="46.8619" lon="6.73502">
        <ele>521.51</ele>
        <time>2021-03-28T10:21:04.030Z</time>
      </trkpt>
      <trkpt lat="46.86187" lon="6.73501">
        <ele>521.05</ele>
        <time>2021-03-28T10:21:04.715Z</time>
      </trkpt>
      <trkpt lat="46.86182" lon="6.73501">
        <ele>520.46</ele>
        <time>2021-03-28T10:21:05.829Z</time>
      </trkpt>
      <trkpt lat="46.86168" lon="6.73503">
        <ele>519.61</ele>
        <time>2021-03-28T10:21:08.840Z</time>
      </trkpt>
      <trkpt lat="46.86163" lon="6.73505">
        <ele>519.12</ele>
        <time>2021-03-28T10:21:09.995Z</time>
      </trkpt>
      <trkpt lat="46.86145" lon="6.73513">
        <ele>517.48</ele>
        <time>2021-03-28T10:21:14.183Z</time>
      </trkpt>
      <trkpt lat="46.8614" lon="6.73513">
        <ele>517.38</ele>
        <time>2021-03-28T10:21:15.761Z</time>
      </trkpt>
      <trkpt lat="46.86137" lon="6.73512">
        <ele>516.97</ele>
        <time>2021-03-28T10:21:16.447Z</time>
      </trkpt>
      <trkpt lat="46.86134" lon="6.73509">
        <ele>516.45</ele>
        <time>2021-03-28T10:21:17.256Z</time>
      </trkpt>
      <trkpt lat="46.86132" lon="6.73503">
        <ele>515.74</ele>
        <time>2021-03-28T10:21:18.272Z</time>
      </trkpt>
      <trkpt lat="46.86132" lon="6.7349">
        <ele>513.99</ele>
        <time>2021-03-28T10:21:20.251Z</time>
      </trkpt>
      <trkpt lat="46.86131" lon="6.73475">
        <ele>512.16</ele>
        <time>2021-03-28T10:21:22.546Z</time>
      </trkpt>
      <trkpt lat="46.86132" lon="6.73462">
        <ele>511.01</ele>
        <time>2021-03-28T10:21:24.537Z</time>
      </trkpt>
      <trkpt lat="46.86132" lon="6.73457">
        <ele>510.67</ele>
        <time>2021-03-28T10:21:25.299Z</time>
      </trkpt>
      <trkpt lat="46.86133" lon="6.73454">
        <ele>510.47</ele>
        <time>2021-03-28T10:21:25.807Z</time>
      </trkpt>
      <trkpt lat="46.86135" lon="6.73451">
        <ele>510.24</ele>
        <time>2021-03-28T10:21:26.445Z</time>
      </trkpt>
      <trkpt lat="46.86138" lon="6.73448">
        <ele>509.96</ele>
        <time>2021-03-28T10:21:27.254Z</time>
      </trkpt>
      <trkpt lat="46.86141" lon="6.73448">
        <ele>509.37</ele>
        <time>2021-03-28T10:21:27.922Z</time>
      </trkpt>
      <trkpt lat="46.86146" lon="6.73449">
        <ele>508.97</ele>
        <time>2021-03-28T10:21:29.045Z</time>
      </trkpt>
      <trkpt lat="46.86161" lon="6.73457">
        <ele>507.77</ele>
        <time>2021-03-28T10:21:32.600Z</time>
      </trkpt>
      <trkpt lat="46.86166" lon="6.73457">
        <ele>507.15</ele>
        <time>2021-03-28T10:21:33.714Z</time>
      </trkpt>
      <trkpt lat="46.8617" lon="6.73455">
        <ele>506.68</ele>
        <time>2021-03-28T10:21:34.655Z</time>
      </trkpt>
      <trkpt lat="46.86172" lon="6.7345">
        <ele>506.04</ele>
        <time>2021-03-28T10:21:35.537Z</time>
      </trkpt>
      <trkpt lat="46.86173" lon="6.73443">
        <ele>505.7</ele>
        <time>2021-03-28T10:21:36.626Z</time>
      </trkpt>
      <trkpt lat="46.86174" lon="6.73431">
        <ele>505.13</ele>
        <time>2021-03-28T10:21:38.466Z</time>
      </trkpt>
      <trkpt lat="46.86134" lon="6.7342">
        <ele>499.41</ele>
        <time>2021-03-28T10:21:47.528Z</time>
      </trkpt>
      <trkpt lat="46.86127" lon="6.73417">
        <ele>498.19</ele>
        <time>2021-03-28T10:21:49.153Z</time>
      </trkpt>
      <trkpt lat="46.86108" lon="6.73405">
        <ele>496.2</ele>
        <time>2021-03-28T10:21:53.761Z</time>
      </trkpt>
      <trkpt lat="46.86104" lon="6.73402">
        <ele>496.31</ele>
        <time>2021-03-28T10:21:59.591Z</time>
      </trkpt>
      <trkpt lat="46.86102" lon="6.73396">
        <ele>496.41</ele>
        <time>2021-03-28T10:22:05.337Z</time>
      </trkpt>
      <trkpt lat="46.861" lon="6.73387">
        <ele>496.2</ele>
        <time>2021-03-28T10:22:07.119Z</time>
      </trkpt>
      <trkpt lat="46.861" lon="6.73349">
        <ele>496.31</ele>
        <time>2021-03-28T10:22:34.320Z</time>
      </trkpt>
      <trkpt lat="46.861" lon="6.73344">
        <ele>496.31</ele>
        <time>2021-03-28T10:22:37.760Z</time>
      </trkpt>
      <trkpt lat="46.86098" lon="6.73339">
        <ele>496.41</ele>
        <time>2021-03-28T10:22:42.945Z</time>
      </trkpt>
      <trkpt lat="46.86084" lon="6.73315">
        <ele>497.01</ele>
        <time>2021-03-28T10:23:12.072Z</time>
      </trkpt>
      <trkpt lat="46.86081" lon="6.73307">
        <ele>497.28</ele>
        <time>2021-03-28T10:23:22.473Z</time>
      </trkpt>
      <trkpt lat="46.8608" lon="6.73301">
        <ele>497.45</ele>
        <time>2021-03-28T10:23:29.205Z</time>
      </trkpt>
      <trkpt lat="46.86079" lon="6.73287">
        <ele>497.69</ele>
        <time>2021-03-28T10:23:41.757Z</time>
      </trkpt>
      <trkpt lat="46.86079" lon="6.73242">
        <ele>498.09</ele>
        <time>2021-03-28T10:24:16.905Z</time>
      </trkpt>
      <trkpt lat="46.86079" lon="6.73229">
        <ele>498.17</ele>
        <time>2021-03-28T10:24:26.653Z</time>
      </trkpt>
      <trkpt lat="46.86078" lon="6.73217">
        <ele>497.54</ele>
        <time>2021-03-28T10:24:28.494Z</time>
      </trkpt>
      <trkpt lat="46.86076" lon="6.7321">
        <ele>496.89</ele>
        <time>2021-03-28T10:24:29.649Z</time>
      </trkpt>
      <trkpt lat="46.86072" lon="6.73195">
        <ele>495.37</ele>
        <time>2021-03-28T10:24:32.100Z</time>
      </trkpt>
      <trkpt lat="46.86066" lon="6.73177">
        <ele>493.74</ele>
        <time>2021-03-28T10:24:35.149Z</time>
      </trkpt>
      <trkpt lat="46.8606" lon="6.73159">
        <ele>492.25</ele>
        <time>2021-03-28T10:24:38.198Z</time>
      </trkpt>
      <trkpt lat="46.8606" lon="6.73159">
        <ele>491.22</ele>
        <time>2021-03-28T10:24:38.198Z</time>
      </trkpt>
      <trkpt lat="46.8606" lon="6.73158">
        <ele>491.22</ele>
        <time>2021-03-28T10:24:38.886Z</time>
      </trkpt>
      <trkpt lat="46.86051" lon="6.7314">
        <ele>490.19</ele>
        <time>2021-03-28T10:24:42.281Z</time>
      </trkpt>
      <trkpt lat="46.86041" lon="6.73119">
        <ele>487.91</ele>
        <time>2021-03-28T10:24:46.177Z</time>
      </trkpt>
      <trkpt lat="46.86032" lon="6.73099">
        <ele>485.76</ele>
        <time>2021-03-28T10:24:49.822Z</time>
      </trkpt>
      <trkpt lat="46.86027" lon="6.73089">
        <ele>484.84</ele>
        <time>2021-03-28T10:24:51.708Z</time>
      </trkpt>
      <trkpt lat="46.86019" lon="6.73076">
        <ele>483.48</ele>
        <time>2021-03-28T10:24:54.371Z</time>
      </trkpt>
      <trkpt lat="46.86006" lon="6.73061">
        <ele>481.35</ele>
        <time>2021-03-28T10:24:58.058Z</time>
      </trkpt>
      <trkpt lat="46.85989" lon="6.73042">
        <ele>478.97</ele>
        <time>2021-03-28T10:25:02.822Z</time>
      </trkpt>
      <trkpt lat="46.85972" lon="6.73024">
        <ele>476.3</ele>
        <time>2021-03-28T10:25:07.495Z</time>
      </trkpt>
      <trkpt lat="46.85954" lon="6.73005">
        <ele>473.66</ele>
        <time>2021-03-28T10:25:12.438Z</time>
      </trkpt>
      <trkpt lat="46.85957" lon="6.72997">
        <ele>474.28</ele>
        <time>2021-03-28T10:25:28.665Z</time>
      </trkpt>
      <trkpt lat="46.85958" lon="6.72992">
        <ele>475.07</ele>
        <time>2021-03-28T10:25:42.491Z</time>
      </trkpt>
      <trkpt lat="46.85958" lon="6.72987">
        <ele>475.83</ele>
        <time>2021-03-28T10:25:55.761Z</time>
      </trkpt>
      <trkpt lat="46.85956" lon="6.72969">
        <ele>477.41</ele>
        <time>2021-03-28T10:26:39.872Z</time>
      </trkpt>
      <trkpt lat="46.85955" lon="6.72958">
        <ele>477.94</ele>
        <time>2021-03-28T10:26:55.219Z</time>
      </trkpt>
      <trkpt lat="46.85955" lon="6.72943">
        <ele>478.19</ele>
        <time>2021-03-28T10:27:08.506Z</time>
      </trkpt>
      <trkpt lat="46.85956" lon="6.72926">
        <ele>478.41</ele>
        <time>2021-03-28T10:27:22.698Z</time>
      </trkpt>
      <trkpt lat="46.85955" lon="6.72912">
        <ele>478.58</ele>
        <time>2021-03-28T10:27:34.253Z</time>
      </trkpt>
      <trkpt lat="46.85954" lon="6.729">
        <ele>478.71</ele>
        <time>2021-03-28T10:27:43.971Z</time>
      </trkpt>
      <trkpt lat="46.8595" lon="6.72873">
        <ele>478.89</ele>
        <time>2021-03-28T10:28:04.798Z</time>
      </trkpt>
      <trkpt lat="46.85946" lon="6.72851">
        <ele>479.73</ele>
        <time>2021-03-28T10:28:32.917Z</time>
      </trkpt>
      <trkpt lat="46.85941" lon="6.7283">
        <ele>481.31</ele>
        <time>2021-03-28T10:29:14.283Z</time>
      </trkpt>
      <trkpt lat="46.85938" lon="6.72823">
        <ele>481.9</ele>
        <time>2021-03-28T10:29:29.734Z</time>
      </trkpt>
      <trkpt lat="46.85935" lon="6.72816">
        <ele>483.07</ele>
        <time>2021-03-28T10:29:51.660Z</time>
      </trkpt>
      <trkpt lat="46.85923" lon="6.72796">
        <ele>487.54</ele>
        <time>2021-03-28T10:31:02.277Z</time>
      </trkpt>
      <trkpt lat="46.85911" lon="6.72776">
        <ele>492.16</ele>
        <time>2021-03-28T10:32:12.895Z</time>
      </trkpt>
      <trkpt lat="46.85903" lon="6.72782">
        <ele>491.38</ele>
        <time>2021-03-28T10:32:14.897Z</time>
      </trkpt>
      <trkpt lat="46.85882" lon="6.72803">
        <ele>489.17</ele>
        <time>2021-03-28T10:32:20.561Z</time>
      </trkpt>
      <trkpt lat="46.85879" lon="6.72805">
        <ele>488.94</ele>
        <time>2021-03-28T10:32:21.296Z</time>
      </trkpt>
      <trkpt lat="46.85876" lon="6.72807">
        <ele>488.74</ele>
        <time>2021-03-28T10:32:22.000Z</time>
      </trkpt>
      <trkpt lat="46.85873" lon="6.72808">
        <ele>488.59</ele>
        <time>2021-03-28T10:32:22.726Z</time>
      </trkpt>
      <trkpt lat="46.8587" lon="6.72808">
        <ele>488.52</ele>
        <time>2021-03-28T10:32:23.638Z</time>
      </trkpt>
      <trkpt lat="46.85867" lon="6.72808">
        <ele>488.44</ele>
        <time>2021-03-28T10:32:24.516Z</time>
      </trkpt>
      <trkpt lat="46.85863" lon="6.72807">
        <ele>488.41</ele>
        <time>2021-03-28T10:32:26.019Z</time>
      </trkpt>
      <trkpt lat="46.85859" lon="6.72804">
        <ele>488.45</ele>
        <time>2021-03-28T10:32:30.944Z</time>
      </trkpt>
      <trkpt lat="46.85857" lon="6.72801">
        <ele>488.49</ele>
        <time>2021-03-28T10:32:34.249Z</time>
      </trkpt>
      <trkpt lat="46.85853" lon="6.72795">
        <ele>488.64</ele>
        <time>2021-03-28T10:32:41.834Z</time>
      </trkpt>
      <trkpt lat="46.85849" lon="6.72787">
        <ele>488.72</ele>
        <time>2021-03-28T10:32:49.480Z</time>
      </trkpt>
      <trkpt lat="46.85845" lon="6.72777">
        <ele>489.07</ele>
        <time>2021-03-28T10:33:02.871Z</time>
      </trkpt>
      <trkpt lat="46.85838" lon="6.72752">
        <ele>490.01</ele>
        <time>2021-03-28T10:33:35.564Z</time>
      </trkpt>
      <trkpt lat="46.85834" lon="6.72738">
        <ele>490.5</ele>
        <time>2021-03-28T10:33:53.494Z</time>
      </trkpt>
      <trkpt lat="46.85832" lon="6.72725">
        <ele>491.13</ele>
        <time>2021-03-28T10:34:11.825Z</time>
      </trkpt>
      <trkpt lat="46.8583" lon="6.72712">
        <ele>491.62</ele>
        <time>2021-03-28T10:34:28.264Z</time>
      </trkpt>
      <trkpt lat="46.85828" lon="6.7269">
        <ele>492.69</ele>
        <time>2021-03-28T10:34:59.111Z</time>
      </trkpt>
      <trkpt lat="46.85827" lon="6.72672">
        <ele>493.14</ele>
        <time>2021-03-28T10:35:17.764Z</time>
      </trkpt>
      <trkpt lat="46.85829" lon="6.7258">
        <ele>493.93</ele>
        <time>2021-03-28T10:36:29.328Z</time>
      </trkpt>
      <trkpt lat="46.85829" lon="6.7258">
        <ele>493.93</ele>
        <time>2021-03-28T10:36:29.328Z</time>
      </trkpt>
      <trkpt lat="46.85831" lon="6.72524">
        <ele>494.72</ele>
        <time>2021-03-28T10:37:16.889Z</time>
      </trkpt>
      <trkpt lat="46.85833" lon="6.72433">
        <ele>491.9</ele>
        <time>2021-03-28T10:37:32.043Z</time>
      </trkpt>
      <trkpt lat="46.85835" lon="6.72359">
        <ele>488.35</ele>
        <time>2021-03-28T10:37:43.318Z</time>
      </trkpt>
      <trkpt lat="46.85835" lon="6.72339">
        <ele>487.89</ele>
        <time>2021-03-28T10:37:47.040Z</time>
      </trkpt>
      <trkpt lat="46.85835" lon="6.72331">
        <ele>487.94</ele>
        <time>2021-03-28T10:37:53.047Z</time>
      </trkpt>
      <trkpt lat="46.85834" lon="6.72324">
        <ele>487.31</ele>
        <time>2021-03-28T10:37:54.136Z</time>
      </trkpt>
      <trkpt lat="46.85832" lon="6.72314">
        <ele>486.86</ele>
        <time>2021-03-28T10:37:55.629Z</time>
      </trkpt>
      <trkpt lat="46.85828" lon="6.72298">
        <ele>486.28</ele>
        <time>2021-03-28T10:37:58.354Z</time>
      </trkpt>
      <trkpt lat="46.85823" lon="6.72282">
        <ele>486.34</ele>
        <time>2021-03-28T10:38:11.038Z</time>
      </trkpt>
      <trkpt lat="46.85796" lon="6.72178">
        <ele>487.16</ele>
        <time>2021-03-28T10:39:35.970Z</time>
      </trkpt>
      <trkpt lat="46.85791" lon="6.72157">
        <ele>487.69</ele>
        <time>2021-03-28T10:39:58.447Z</time>
      </trkpt>
      <trkpt lat="46.8579" lon="6.72144">
        <ele>488.17</ele>
        <time>2021-03-28T10:40:14.574Z</time>
      </trkpt>
      <trkpt lat="46.85789" lon="6.7213">
        <ele>488.53</ele>
        <time>2021-03-28T10:40:29.307Z</time>
      </trkpt>
      <trkpt lat="46.8579" lon="6.72115">
        <ele>489.2</ele>
        <time>2021-03-28T10:40:49.418Z</time>
      </trkpt>
      <trkpt lat="46.85789" lon="6.72104">
        <ele>489.71</ele>
        <time>2021-03-28T10:41:04.467Z</time>
      </trkpt>
      <trkpt lat="46.85789" lon="6.72098">
        <ele>489.88</ele>
        <time>2021-03-28T10:41:11.121Z</time>
      </trkpt>
      <trkpt lat="46.85786" lon="6.72088">
        <ele>490.56</ele>
        <time>2021-03-28T10:41:29.096Z</time>
      </trkpt>
      <trkpt lat="46.85774" lon="6.72047">
        <ele>492.35</ele>
        <time>2021-03-28T10:42:25.997Z</time>
      </trkpt>
      <trkpt lat="46.85761" lon="6.72">
        <ele>493.96</ele>
        <time>2021-03-28T10:43:25.607Z</time>
      </trkpt>
      <trkpt lat="46.85746" lon="6.71997">
        <ele>492.83</ele>
        <time>2021-03-28T10:43:28.978Z</time>
      </trkpt>
      <trkpt lat="46.85736" lon="6.71996">
        <ele>492.11</ele>
        <time>2021-03-28T10:43:31.209Z</time>
      </trkpt>
      <trkpt lat="46.8573" lon="6.71996">
        <ele>491.88</ele>
        <time>2021-03-28T10:43:32.768Z</time>
      </trkpt>
      <trkpt lat="46.8573" lon="6.71996">
        <ele>491.88</ele>
        <time>2021-03-28T10:43:32.768Z</time>
      </trkpt>
      <trkpt lat="46.85728" lon="6.71996">
        <ele>491.66</ele>
        <time>2021-03-28T10:43:33.213Z</time>
      </trkpt>
      <trkpt lat="46.85718" lon="6.71998">
        <ele>490.99</ele>
        <time>2021-03-28T10:43:35.277Z</time>
      </trkpt>
      <trkpt lat="46.85706" lon="6.72">
        <ele>490.18</ele>
        <time>2021-03-28T10:43:37.966Z</time>
      </trkpt>
      <trkpt lat="46.85688" lon="6.72004">
        <ele>489.11</ele>
        <time>2021-03-28T10:43:41.916Z</time>
      </trkpt>
      <trkpt lat="46.85677" lon="6.72004">
        <ele>488.63</ele>
        <time>2021-03-28T10:43:44.634Z</time>
      </trkpt>
      <trkpt lat="46.8567" lon="6.72003">
        <ele>488.06</ele>
        <time>2021-03-28T10:43:46.200Z</time>
      </trkpt>
      <trkpt lat="46.85664" lon="6.72">
        <ele>487.69</ele>
        <time>2021-03-28T10:43:47.581Z</time>
      </trkpt>
      <trkpt lat="46.85657" lon="6.71995">
        <ele>487.01</ele>
        <time>2021-03-28T10:43:49.315Z</time>
      </trkpt>
      <trkpt lat="46.85648" lon="6.71987">
        <ele>486.16</ele>
        <time>2021-03-28T10:43:51.660Z</time>
      </trkpt>
      <trkpt lat="46.8563" lon="6.71971">
        <ele>484.46</ele>
        <time>2021-03-28T10:43:56.350Z</time>
      </trkpt>
      <trkpt lat="46.85623" lon="6.71965">
        <ele>483.6</ele>
        <time>2021-03-28T10:43:58.157Z</time>
      </trkpt>
      <trkpt lat="46.85599" lon="6.71975">
        <ele>479.79</ele>
        <time>2021-03-28T10:44:03.713Z</time>
      </trkpt>
      <trkpt lat="46.8558" lon="6.71979">
        <ele>478.12</ele>
        <time>2021-03-28T10:44:07.988Z</time>
      </trkpt>
      <trkpt lat="46.85572" lon="6.7198">
        <ele>477.42</ele>
        <time>2021-03-28T10:44:09.775Z</time>
      </trkpt>
      <trkpt lat="46.85561" lon="6.71979">
        <ele>476.16</ele>
        <time>2021-03-28T10:44:12.229Z</time>
      </trkpt>
      <trkpt lat="46.85552" lon="6.71977">
        <ele>475.15</ele>
        <time>2021-03-28T10:44:14.256Z</time>
      </trkpt>
      <trkpt lat="46.85541" lon="6.71975">
        <ele>473.44</ele>
        <time>2021-03-28T10:44:16.724Z</time>
      </trkpt>
      <trkpt lat="46.85538" lon="6.71974">
        <ele>473</ele>
        <time>2021-03-28T10:44:17.409Z</time>
      </trkpt>
      <trkpt lat="46.85535" lon="6.71972">
        <ele>472.47</ele>
        <time>2021-03-28T10:44:18.144Z</time>
      </trkpt>
      <trkpt lat="46.85524" lon="6.7196">
        <ele>470.46</ele>
        <time>2021-03-28T10:44:21.199Z</time>
      </trkpt>
      <trkpt lat="46.8551" lon="6.71945">
        <ele>468.22</ele>
        <time>2021-03-28T10:44:25.064Z</time>
      </trkpt>
      <trkpt lat="46.85504" lon="6.71938">
        <ele>467.25</ele>
        <time>2021-03-28T10:44:26.773Z</time>
      </trkpt>
      <trkpt lat="46.85495" lon="6.71926">
        <ele>465.81</ele>
        <time>2021-03-28T10:44:29.484Z</time>
      </trkpt>
      <trkpt lat="46.85492" lon="6.71922">
        <ele>465.47</ele>
        <time>2021-03-28T10:44:30.388Z</time>
      </trkpt>
      <trkpt lat="46.8549" lon="6.71917">
        <ele>465.43</ele>
        <time>2021-03-28T10:44:31.803Z</time>
      </trkpt>
      <trkpt lat="46.8549" lon="6.71913">
        <ele>465.28</ele>
        <time>2021-03-28T10:44:32.416Z</time>
      </trkpt>
      <trkpt lat="46.85485" lon="6.71913">
        <ele>464.88</ele>
        <time>2021-03-28T10:44:33.529Z</time>
      </trkpt>
      <trkpt lat="46.85479" lon="6.71912">
        <ele>464.45</ele>
        <time>2021-03-28T10:44:34.874Z</time>
      </trkpt>
      <trkpt lat="46.85473" lon="6.71911">
        <ele>463.98</ele>
        <time>2021-03-28T10:44:36.218Z</time>
      </trkpt>
      <trkpt lat="46.85459" lon="6.71907">
        <ele>462.85</ele>
        <time>2021-03-28T10:44:39.394Z</time>
      </trkpt>
      <trkpt lat="46.85452" lon="6.71906">
        <ele>462.27</ele>
        <time>2021-03-28T10:44:40.960Z</time>
      </trkpt>
      <trkpt lat="46.85442" lon="6.71906">
        <ele>461.51</ele>
        <time>2021-03-28T10:44:43.187Z</time>
      </trkpt>
      <trkpt lat="46.8543" lon="6.71906">
        <ele>460.57</ele>
        <time>2021-03-28T10:44:45.859Z</time>
      </trkpt>
      <trkpt lat="46.85429" lon="6.71895">
        <ele>461.16</ele>
        <time>2021-03-28T10:45:02.178Z</time>
      </trkpt>
      <trkpt lat="46.85427" lon="6.7188">
        <ele>462.45</ele>
        <time>2021-03-28T10:45:37.619Z</time>
      </trkpt>
      <trkpt lat="46.85425" lon="6.71871">
        <ele>463.24</ele>
        <time>2021-03-28T10:45:59.195Z</time>
      </trkpt>
      <trkpt lat="46.85423" lon="6.71864">
        <ele>463.63</ele>
        <time>2021-03-28T10:46:10.126Z</time>
      </trkpt>
      <trkpt lat="46.85418" lon="6.71854">
        <ele>464.04</ele>
        <time>2021-03-28T10:46:24.877Z</time>
      </trkpt>
      <trkpt lat="46.85407" lon="6.7183">
        <ele>464.18</ele>
        <time>2021-03-28T10:46:46.139Z</time>
      </trkpt>
      <trkpt lat="46.85396" lon="6.71805">
        <ele>463.66</ele>
        <time>2021-03-28T10:46:52.161Z</time>
      </trkpt>
      <trkpt lat="46.8539" lon="6.71789">
        <ele>463.15</ele>
        <time>2021-03-28T10:46:55.325Z</time>
      </trkpt>
      <trkpt lat="46.85384" lon="6.71778">
        <ele>462.89</ele>
        <time>2021-03-28T10:46:58.131Z</time>
      </trkpt>
      <trkpt lat="46.85384" lon="6.71777">
        <ele>462.89</ele>
        <time>2021-03-28T10:46:58.819Z</time>
      </trkpt>
      <trkpt lat="46.85383" lon="6.71775">
        <ele>462.63</ele>
        <time>2021-03-28T10:46:59.196Z</time>
      </trkpt>
      <trkpt lat="46.85356" lon="6.71724">
        <ele>460.54</ele>
        <time>2021-03-28T10:47:09.733Z</time>
      </trkpt>
      <trkpt lat="46.85335" lon="6.71682">
        <ele>458.82</ele>
        <time>2021-03-28T10:47:18.161Z</time>
      </trkpt>
      <trkpt lat="46.85328" lon="6.71665">
        <ele>458.41</ele>
        <time>2021-03-28T10:47:21.986Z</time>
      </trkpt>
      <trkpt lat="46.85322" lon="6.71649">
        <ele>458.11</ele>
        <time>2021-03-28T10:47:25.747Z</time>
      </trkpt>
      <trkpt lat="46.85318" lon="6.71636">
        <ele>457.97</ele>
        <time>2021-03-28T10:47:29.041Z</time>
      </trkpt>
      <trkpt lat="46.85315" lon="6.71624">
        <ele>457.82</ele>
        <time>2021-03-28T10:47:31.894Z</time>
      </trkpt>
      <trkpt lat="46.85313" lon="6.71614">
        <ele>457.6</ele>
        <time>2021-03-28T10:47:33.888Z</time>
      </trkpt>
      <trkpt lat="46.85311" lon="6.71597">
        <ele>457.5</ele>
        <time>2021-03-28T10:47:38.193Z</time>
      </trkpt>
      <trkpt lat="46.8531" lon="6.71579">
        <ele>457.25</ele>
        <time>2021-03-28T10:47:42.080Z</time>
      </trkpt>
      <trkpt lat="46.8531" lon="6.71563">
        <ele>457.28</ele>
        <time>2021-03-28T10:47:53.374Z</time>
      </trkpt>
      <trkpt lat="46.85313" lon="6.71505">
        <ele>457.22</ele>
        <time>2021-03-28T10:48:32.497Z</time>
      </trkpt>
      <trkpt lat="46.85314" lon="6.71489">
        <ele>457.27</ele>
        <time>2021-03-28T10:48:44.035Z</time>
      </trkpt>
      <trkpt lat="46.85315" lon="6.7147">
        <ele>457.25</ele>
        <time>2021-03-28T10:48:56.847Z</time>
      </trkpt>
      <trkpt lat="46.85318" lon="6.71447">
        <ele>457.36</ele>
        <time>2021-03-28T10:49:14.042Z</time>
      </trkpt>
      <trkpt lat="46.85319" lon="6.71432">
        <ele>457.25</ele>
        <time>2021-03-28T10:49:17.694Z</time>
      </trkpt>
      <trkpt lat="46.8532" lon="6.71408">
        <ele>456.99</ele>
        <time>2021-03-28T10:49:23.152Z</time>
      </trkpt>
      <trkpt lat="46.8532" lon="6.71372">
        <ele>457.13</ele>
        <time>2021-03-28T10:49:49.287Z</time>
      </trkpt>
      <trkpt lat="46.8532" lon="6.71357">
        <ele>457.13</ele>
        <time>2021-03-28T10:49:59.610Z</time>
      </trkpt>
      <trkpt lat="46.85322" lon="6.71302">
        <ele>456.95</ele>
        <time>2021-03-28T10:50:34.926Z</time>
      </trkpt>
      <trkpt lat="46.85322" lon="6.71276">
        <ele>456.85</ele>
        <time>2021-03-28T10:50:51.399Z</time>
      </trkpt>
      <trkpt lat="46.85322" lon="6.71265">
        <ele>456.89</ele>
        <time>2021-03-28T10:50:59.356Z</time>
      </trkpt>
      <trkpt lat="46.85322" lon="6.71264">
        <ele>456.89</ele>
        <time>2021-03-28T10:51:00.044Z</time>
      </trkpt>
      <trkpt lat="46.85321" lon="6.71259">
        <ele>456.92</ele>
        <time>2021-03-28T10:51:03.929Z</time>
      </trkpt>
      <trkpt lat="46.85321" lon="6.71245">
        <ele>456.99</ele>
        <time>2021-03-28T10:51:14.254Z</time>
      </trkpt>
      <trkpt lat="46.8532" lon="6.71233">
        <ele>456.86</ele>
        <time>2021-03-28T10:51:17.001Z</time>
      </trkpt>
      <trkpt lat="46.85318" lon="6.7122">
        <ele>457.11</ele>
        <time>2021-03-28T10:51:29.249Z</time>
      </trkpt>
      <trkpt lat="46.85316" lon="6.7121">
        <ele>457.11</ele>
        <time>2021-03-28T10:51:36.419Z</time>
      </trkpt>
      <trkpt lat="46.85312" lon="6.71199">
        <ele>457.07</ele>
        <time>2021-03-28T10:51:44.417Z</time>
      </trkpt>
      <trkpt lat="46.85308" lon="6.71184">
        <ele>456.85</ele>
        <time>2021-03-28T10:51:47.892Z</time>
      </trkpt>
      <trkpt lat="46.85299" lon="6.71159">
        <ele>456.87</ele>
        <time>2021-03-28T10:52:07.521Z</time>
      </trkpt>
      <trkpt lat="46.85292" lon="6.71137">
        <ele>457.44</ele>
        <time>2021-03-28T10:52:31.884Z</time>
      </trkpt>
      <trkpt lat="46.85283" lon="6.71115">
        <ele>457.56</ele>
        <time>2021-03-28T10:52:50.706Z</time>
      </trkpt>
      <trkpt lat="46.8527" lon="6.71088">
        <ele>457.55</ele>
        <time>2021-03-28T10:53:13.276Z</time>
      </trkpt>
      <trkpt lat="46.85265" lon="6.71076">
        <ele>457.55</ele>
        <time>2021-03-28T10:53:22.946Z</time>
      </trkpt>
      <trkpt lat="46.85262" lon="6.71068">
        <ele>457.7</ele>
        <time>2021-03-28T10:53:30.998Z</time>
      </trkpt>
      <trkpt lat="46.85255" lon="6.71053">
        <ele>457.72</ele>
        <time>2021-03-28T10:53:43.682Z</time>
      </trkpt>
      <trkpt lat="46.85249" lon="6.71039">
        <ele>457.69</ele>
        <time>2021-03-28T10:53:54.607Z</time>
      </trkpt>
      <trkpt lat="46.85229" lon="6.70988">
        <ele>457.85</ele>
        <time>2021-03-28T10:54:36.595Z</time>
      </trkpt>
      <trkpt lat="46.85223" lon="6.70974">
        <ele>458.09</ele>
        <time>2021-03-28T10:54:50.712Z</time>
      </trkpt>
      <trkpt lat="46.8522" lon="6.70964">
        <ele>458.33</ele>
        <time>2021-03-28T10:55:01.362Z</time>
      </trkpt>
      <trkpt lat="46.85214" lon="6.7094">
        <ele>458.73</ele>
        <time>2021-03-28T10:55:23.612Z</time>
      </trkpt>
      <trkpt lat="46.85205" lon="6.70907">
        <ele>459.19</ele>
        <time>2021-03-28T10:55:53.190Z</time>
      </trkpt>
      <trkpt lat="46.85188" lon="6.7084">
        <ele>460.72</ele>
        <time>2021-03-28T10:57:02.141Z</time>
      </trkpt>
      <trkpt lat="46.85182" lon="6.70817">
        <ele>462.07</ele>
        <time>2021-03-28T10:57:39.067Z</time>
      </trkpt>
      <trkpt lat="46.85177" lon="6.70801">
        <ele>462.79</ele>
        <time>2021-03-28T10:58:01.695Z</time>
      </trkpt>
      <trkpt lat="46.85173" lon="6.70791">
        <ele>463.07</ele>
        <time>2021-03-28T10:58:13.483Z</time>
      </trkpt>
      <trkpt lat="46.85166" lon="6.70774">
        <ele>462.96</ele>
        <time>2021-03-28T10:58:18.461Z</time>
      </trkpt>
      <trkpt lat="46.85146" lon="6.70723">
        <ele>462.75</ele>
        <time>2021-03-28T10:58:55.921Z</time>
      </trkpt>
      <trkpt lat="46.85083" lon="6.70564">
        <ele>464.21</ele>
        <time>2021-03-28T11:01:17.440Z</time>
      </trkpt>
      <trkpt lat="46.85061" lon="6.70508">
        <ele>464.52</ele>
        <time>2021-03-28T11:02:04.938Z</time>
      </trkpt>
      <trkpt lat="46.85057" lon="6.70499">
        <ele>464.69</ele>
        <time>2021-03-28T11:02:14.314Z</time>
      </trkpt>
      <trkpt lat="46.85008" lon="6.70375">
        <ele>466.18</ele>
        <time>2021-03-28T11:04:08.828Z</time>
      </trkpt>
      <trkpt lat="46.84978" lon="6.70299">
        <ele>467.38</ele>
        <time>2021-03-28T11:05:22.759Z</time>
      </trkpt>
      <trkpt lat="46.84956" lon="6.70244">
        <ele>470.02</ele>
        <time>2021-03-28T11:06:45.145Z</time>
      </trkpt>
      <trkpt lat="46.8494" lon="6.70202">
        <ele>468.58</ele>
        <time>2021-03-28T11:06:53.259Z</time>
      </trkpt>
      <trkpt lat="46.84872" lon="6.7003">
        <ele>467.7</ele>
        <time>2021-03-28T11:08:57.643Z</time>
      </trkpt>
      <trkpt lat="46.84841" lon="6.69951">
        <ele>468.2</ele>
        <time>2021-03-28T11:10:05.299Z</time>
      </trkpt>
      <trkpt lat="46.84723" lon="6.69653">
        <ele>471.96</ele>
        <time>2021-03-28T11:14:42.877Z</time>
      </trkpt>
      <trkpt lat="46.84716" lon="6.69638">
        <ele>472.09</ele>
        <time>2021-03-28T11:14:56.700Z</time>
      </trkpt>
      <trkpt lat="46.8471" lon="6.69623">
        <ele>472.23</ele>
        <time>2021-03-28T11:15:10.106Z</time>
      </trkpt>
      <trkpt lat="46.84672" lon="6.69514">
        <ele>472.64</ele>
        <time>2021-03-28T11:16:38.264Z</time>
      </trkpt>
      <trkpt lat="46.84661" lon="6.69484">
        <ele>472.1</ele>
        <time>2021-03-28T11:16:45.347Z</time>
      </trkpt>
      <trkpt lat="46.84633" lon="6.694">
        <ele>471.15</ele>
        <time>2021-03-28T11:17:06.811Z</time>
      </trkpt>
      <trkpt lat="46.84624" lon="6.69373">
        <ele>470.86</ele>
        <time>2021-03-28T11:17:13.776Z</time>
      </trkpt>
      <trkpt lat="46.84559" lon="6.69186">
        <ele>469.19</ele>
        <time>2021-03-28T11:18:03.979Z</time>
      </trkpt>
      <trkpt lat="46.84551" lon="6.69163">
        <ele>468.97</ele>
        <time>2021-03-28T11:18:10.089Z</time>
      </trkpt>
      <trkpt lat="46.84533" lon="6.6911">
        <ele>468.76</ele>
        <time>2021-03-28T11:18:47.817Z</time>
      </trkpt>
      <trkpt lat="46.84516" lon="6.6906">
        <ele>468.41</ele>
        <time>2021-03-28T11:19:01.625Z</time>
      </trkpt>
      <trkpt lat="46.84516" lon="6.69059">
        <ele>468.41</ele>
        <time>2021-03-28T11:19:02.313Z</time>
      </trkpt>
      <trkpt lat="46.84499" lon="6.6901">
        <ele>468.07</ele>
        <time>2021-03-28T11:19:15.922Z</time>
      </trkpt>
      <trkpt lat="46.8449" lon="6.68986">
        <ele>467.95</ele>
        <time>2021-03-28T11:19:33.075Z</time>
      </trkpt>
      <trkpt lat="46.84465" lon="6.68913">
        <ele>467.47</ele>
        <time>2021-03-28T11:19:53.420Z</time>
      </trkpt>
      <trkpt lat="46.84452" lon="6.68875">
        <ele>467.21</ele>
        <time>2021-03-28T11:20:03.958Z</time>
      </trkpt>
      <trkpt lat="46.84445" lon="6.68857">
        <ele>466.79</ele>
        <time>2021-03-28T11:20:07.973Z</time>
      </trkpt>
      <trkpt lat="46.8444" lon="6.68842">
        <ele>466.53</ele>
        <time>2021-03-28T11:20:11.462Z</time>
      </trkpt>
      <trkpt lat="46.84435" lon="6.68833">
        <ele>466.48</ele>
        <time>2021-03-28T11:20:18.739Z</time>
      </trkpt>
      <trkpt lat="46.84429" lon="6.68819">
        <ele>466.03</ele>
        <time>2021-03-28T11:20:21.633Z</time>
      </trkpt>
      <trkpt lat="46.84422" lon="6.68807">
        <ele>465.7</ele>
        <time>2021-03-28T11:20:24.661Z</time>
      </trkpt>
      <trkpt lat="46.84416" lon="6.68797">
        <ele>465.28</ele>
        <time>2021-03-28T11:20:26.859Z</time>
      </trkpt>
      <trkpt lat="46.84408" lon="6.68785">
        <ele>464.97</ele>
        <time>2021-03-28T11:20:30.200Z</time>
      </trkpt>
      <trkpt lat="46.84405" lon="6.68781">
        <ele>464.83</ele>
        <time>2021-03-28T11:20:31.295Z</time>
      </trkpt>
      <trkpt lat="46.84399" lon="6.68774">
        <ele>464.57</ele>
        <time>2021-03-28T11:20:33.379Z</time>
      </trkpt>
      <trkpt lat="46.8438" lon="6.68753">
        <ele>464.08</ele>
        <time>2021-03-28T11:20:40.846Z</time>
      </trkpt>
      <trkpt lat="46.84372" lon="6.68745">
        <ele>463.62</ele>
        <time>2021-03-28T11:20:43.160Z</time>
      </trkpt>
      <trkpt lat="46.84356" lon="6.68731">
        <ele>463.62</ele>
        <time>2021-03-28T11:21:01.924Z</time>
      </trkpt>
      <trkpt lat="46.8435" lon="6.68726">
        <ele>463.54</ele>
        <time>2021-03-28T11:21:04.342Z</time>
      </trkpt>
      <trkpt lat="46.84325" lon="6.68702">
        <ele>463.32</ele>
        <time>2021-03-28T11:21:15.425Z</time>
      </trkpt>
      <trkpt lat="46.84315" lon="6.68693">
        <ele>463.29</ele>
        <time>2021-03-28T11:21:26.796Z</time>
      </trkpt>
      <trkpt lat="46.84301" lon="6.68676">
        <ele>462.95</ele>
        <time>2021-03-28T11:21:32.631Z</time>
      </trkpt>
      <trkpt lat="46.84284" lon="6.68656">
        <ele>462.89</ele>
        <time>2021-03-28T11:21:53.700Z</time>
      </trkpt>
      <trkpt lat="46.84276" lon="6.68646">
        <ele>462.93</ele>
        <time>2021-03-28T11:22:04.674Z</time>
      </trkpt>
      <trkpt lat="46.8426" lon="6.68627">
        <ele>462.59</ele>
        <time>2021-03-28T11:22:11.459Z</time>
      </trkpt>
      <trkpt lat="46.84238" lon="6.68599">
        <ele>463.07</ele>
        <time>2021-03-28T11:22:46.020Z</time>
      </trkpt>
      <trkpt lat="46.84206" lon="6.68559">
        <ele>464.04</ele>
        <time>2021-03-28T11:23:39.718Z</time>
      </trkpt>
      <trkpt lat="46.84183" lon="6.68533">
        <ele>464.64</ele>
        <time>2021-03-28T11:24:15.793Z</time>
      </trkpt>
      <trkpt lat="46.84133" lon="6.68477">
        <ele>465.42</ele>
        <time>2021-03-28T11:25:27.284Z</time>
      </trkpt>
      <trkpt lat="46.84129" lon="6.68471">
        <ele>465.44</ele>
        <time>2021-03-28T11:25:33.241Z</time>
      </trkpt>
      <trkpt lat="46.84127" lon="6.68467">
        <ele>465.35</ele>
        <time>2021-03-28T11:25:34.235Z</time>
      </trkpt>
      <trkpt lat="46.84122" lon="6.68471">
        <ele>465.87</ele>
        <time>2021-03-28T11:25:47.976Z</time>
      </trkpt>
      <trkpt lat="46.84117" lon="6.68473">
        <ele>466.15</ele>
        <time>2021-03-28T11:25:57.343Z</time>
      </trkpt>
      <trkpt lat="46.8411" lon="6.68476">
        <ele>466.59</ele>
        <time>2021-03-28T11:26:11.109Z</time>
      </trkpt>
      <trkpt lat="46.84069" lon="6.6849">
        <ele>468.89</ele>
        <time>2021-03-28T11:27:27.507Z</time>
      </trkpt>
      <trkpt lat="46.84061" lon="6.68493">
        <ele>469.61</ele>
        <time>2021-03-28T11:27:46.719Z</time>
      </trkpt>
      <trkpt lat="46.84056" lon="6.68495">
        <ele>469.94</ele>
        <time>2021-03-28T11:27:56.736Z</time>
      </trkpt>
      <trkpt lat="46.8405" lon="6.68498">
        <ele>470.28</ele>
        <time>2021-03-28T11:28:08.165Z</time>
      </trkpt>
      <trkpt lat="46.84045" lon="6.68501">
        <ele>470.57</ele>
        <time>2021-03-28T11:28:17.908Z</time>
      </trkpt>
      <trkpt lat="46.8404" lon="6.68506">
        <ele>470.74</ele>
        <time>2021-03-28T11:28:26.113Z</time>
      </trkpt>
      <trkpt lat="46.8404" lon="6.68506">
        <ele>470.74</ele>
        <time>2021-03-28T11:28:26.113Z</time>
      </trkpt>
      <trkpt lat="46.84039" lon="6.68507">
        <ele>470.92</ele>
        <time>2021-03-28T11:28:30.815Z</time>
      </trkpt>
      <trkpt lat="46.84035" lon="6.68513">
        <ele>471.03</ele>
        <time>2021-03-28T11:28:37.813Z</time>
      </trkpt>
      <trkpt lat="46.84031" lon="6.68517">
        <ele>471.24</ele>
        <time>2021-03-28T11:28:45.899Z</time>
      </trkpt>
      <trkpt lat="46.84026" lon="6.68526">
        <ele>471.84</ele>
        <time>2021-03-28T11:29:02.673Z</time>
      </trkpt>
      <trkpt lat="46.8402" lon="6.68538">
        <ele>472.29</ele>
        <time>2021-03-28T11:29:19.880Z</time>
      </trkpt>
      <trkpt lat="46.84016" lon="6.68548">
        <ele>472.74</ele>
        <time>2021-03-28T11:29:34.471Z</time>
      </trkpt>
      <trkpt lat="46.84015" lon="6.68554">
        <ele>472.89</ele>
        <time>2021-03-28T11:29:40.771Z</time>
      </trkpt>
      <trkpt lat="46.8401" lon="6.6857">
        <ele>473.31</ele>
        <time>2021-03-28T11:29:58.570Z</time>
      </trkpt>
      <trkpt lat="46.84007" lon="6.68584">
        <ele>473.49</ele>
        <time>2021-03-28T11:30:10.654Z</time>
      </trkpt>
      <trkpt lat="46.84001" lon="6.68596">
        <ele>473.79</ele>
        <time>2021-03-28T11:30:24.674Z</time>
      </trkpt>
      <trkpt lat="46.83994" lon="6.68607">
        <ele>473.91</ele>
        <time>2021-03-28T11:30:36.254Z</time>
      </trkpt>
      <trkpt lat="46.83988" lon="6.68614">
        <ele>474.01</ele>
        <time>2021-03-28T11:30:45.025Z</time>
      </trkpt>
      <trkpt lat="46.83977" lon="6.68624">
        <ele>474.2</ele>
        <time>2021-03-28T11:31:00.083Z</time>
      </trkpt>
      <trkpt lat="46.83974" lon="6.68627">
        <ele>474.32</ele>
        <time>2021-03-28T11:31:05.326Z</time>
      </trkpt>
      <trkpt lat="46.83971" lon="6.68631">
        <ele>474.47</ele>
        <time>2021-03-28T11:31:11.502Z</time>
      </trkpt>
      <trkpt lat="46.83967" lon="6.68638">
        <ele>474.6</ele>
        <time>2021-03-28T11:31:19.261Z</time>
      </trkpt>
      <trkpt lat="46.83965" lon="6.68646">
        <ele>474.86</ele>
        <time>2021-03-28T11:31:29.164Z</time>
      </trkpt>
      <trkpt lat="46.83963" lon="6.68655">
        <ele>474.98</ele>
        <time>2021-03-28T11:31:37.010Z</time>
      </trkpt>
      <trkpt lat="46.83963" lon="6.68658">
        <ele>475.25</ele>
        <time>2021-03-28T11:31:44.766Z</time>
      </trkpt>
      <trkpt lat="46.83962" lon="6.68658">
        <ele>475.16</ele>
        <time>2021-03-28T11:31:44.989Z</time>
      </trkpt>
      <trkpt lat="46.8396" lon="6.68658">
        <ele>475.08</ele>
        <time>2021-03-28T11:31:45.500Z</time>
      </trkpt>
      <trkpt lat="46.83959" lon="6.68656">
        <ele>474.84</ele>
        <time>2021-03-28T11:31:45.877Z</time>
      </trkpt>
      <trkpt lat="46.83954" lon="6.68647">
        <ele>474.26</ele>
        <time>2021-03-28T11:31:47.643Z</time>
      </trkpt>
      <trkpt lat="46.83949" lon="6.68634">
        <ele>473.47</ele>
        <time>2021-03-28T11:31:49.915Z</time>
      </trkpt>
      <trkpt lat="46.83944" lon="6.68622">
        <ele>472.88</ele>
        <time>2021-03-28T11:31:51.957Z</time>
      </trkpt>
      <trkpt lat="46.83939" lon="6.68612">
        <ele>472.12</ele>
        <time>2021-03-28T11:31:53.843Z</time>
      </trkpt>
      <trkpt lat="46.83936" lon="6.68606">
        <ele>472.03</ele>
        <time>2021-03-28T11:31:55.492Z</time>
      </trkpt>
      <trkpt lat="46.83933" lon="6.68601">
        <ele>471.78</ele>
        <time>2021-03-28T11:31:56.511Z</time>
      </trkpt>
      <trkpt lat="46.83928" lon="6.68596">
        <ele>471.52</ele>
        <time>2021-03-28T11:31:58.018Z</time>
      </trkpt>
      <trkpt lat="46.83923" lon="6.68594">
        <ele>471.29</ele>
        <time>2021-03-28T11:31:59.290Z</time>
      </trkpt>
      <trkpt lat="46.83918" lon="6.68594">
        <ele>471.17</ele>
        <time>2021-03-28T11:32:00.797Z</time>
      </trkpt>
      <trkpt lat="46.83911" lon="6.68595">
        <ele>471.02</ele>
        <time>2021-03-28T11:32:02.983Z</time>
      </trkpt>
      <trkpt lat="46.83902" lon="6.68599">
        <ele>470.66</ele>
        <time>2021-03-28T11:32:05.428Z</time>
      </trkpt>
      <trkpt lat="46.83894" lon="6.68602">
        <ele>470.32</ele>
        <time>2021-03-28T11:32:07.516Z</time>
      </trkpt>
      <trkpt lat="46.83886" lon="6.68607">
        <ele>470.06</ele>
        <time>2021-03-28T11:32:09.977Z</time>
      </trkpt>
      <trkpt lat="46.83878" lon="6.68614">
        <ele>470.64</ele>
        <time>2021-03-28T11:32:27.809Z</time>
      </trkpt>
      <trkpt lat="46.83858" lon="6.6863">
        <ele>472.16</ele>
        <time>2021-03-28T11:33:12.842Z</time>
      </trkpt>
      <trkpt lat="46.8385" lon="6.68634">
        <ele>472.43</ele>
        <time>2021-03-28T11:33:24.868Z</time>
      </trkpt>
      <trkpt lat="46.83841" lon="6.68641">
        <ele>472.51</ele>
        <time>2021-03-28T11:33:35.921Z</time>
      </trkpt>
      <trkpt lat="46.83832" lon="6.6865">
        <ele>472.67</ele>
        <time>2021-03-28T11:33:48.597Z</time>
      </trkpt>
      <trkpt lat="46.8381" lon="6.6867">
        <ele>472.97</ele>
        <time>2021-03-28T11:34:17.760Z</time>
      </trkpt>
      <trkpt lat="46.83803" lon="6.68678">
        <ele>472.95</ele>
        <time>2021-03-28T11:34:26.403Z</time>
      </trkpt>
      <trkpt lat="46.83799" lon="6.68683">
        <ele>472.93</ele>
        <time>2021-03-28T11:34:31.408Z</time>
      </trkpt>
      <trkpt lat="46.83794" lon="6.68691">
        <ele>473.04</ele>
        <time>2021-03-28T11:34:40.040Z</time>
      </trkpt>
      <trkpt lat="46.83772" lon="6.6873">
        <ele>472.93</ele>
        <time>2021-03-28T11:35:13.220Z</time>
      </trkpt>
      <trkpt lat="46.83757" lon="6.68758">
        <ele>472.6</ele>
        <time>2021-03-28T11:35:21.525Z</time>
      </trkpt>
      <trkpt lat="46.83745" lon="6.68778">
        <ele>471.69</ele>
        <time>2021-03-28T11:35:25.773Z</time>
      </trkpt>
      <trkpt lat="46.83723" lon="6.68759">
        <ele>470.14</ele>
        <time>2021-03-28T11:35:31.234Z</time>
      </trkpt>
      <trkpt lat="46.83702" lon="6.68742">
        <ele>468.66</ele>
        <time>2021-03-28T11:35:36.324Z</time>
      </trkpt>
      <trkpt lat="46.837" lon="6.68747">
        <ele>468.56</ele>
        <time>2021-03-28T11:35:37.502Z</time>
      </trkpt>
      <trkpt lat="46.83698" lon="6.68749">
        <ele>468.34</ele>
        <time>2021-03-28T11:35:38.042Z</time>
      </trkpt>
      <trkpt lat="46.83692" lon="6.68756">
        <ele>467.59</ele>
        <time>2021-03-28T11:35:39.751Z</time>
      </trkpt>
      <trkpt lat="46.83659" lon="6.68795">
        <ele>463.17</ele>
        <time>2021-03-28T11:35:49.199Z</time>
      </trkpt>
      <trkpt lat="46.83637" lon="6.68822">
        <ele>460.51</ele>
        <time>2021-03-28T11:35:55.595Z</time>
      </trkpt>
      <trkpt lat="46.83622" lon="6.68838">
        <ele>459.18</ele>
        <time>2021-03-28T11:35:59.730Z</time>
      </trkpt>
      <trkpt lat="46.83609" lon="6.68853">
        <ele>457.84</ele>
        <time>2021-03-28T11:36:03.417Z</time>
      </trkpt>
      <trkpt lat="46.83601" lon="6.68862">
        <ele>457.25</ele>
        <time>2021-03-28T11:36:05.613Z</time>
      </trkpt>
      <trkpt lat="46.83601" lon="6.68862">
        <ele>457.25</ele>
        <time>2021-03-28T11:36:05.613Z</time>
      </trkpt>
      <trkpt lat="46.83595" lon="6.68869">
        <ele>456.66</ele>
        <time>2021-03-28T11:36:07.323Z</time>
      </trkpt>
      <trkpt lat="46.8358" lon="6.68884">
        <ele>455.58</ele>
        <time>2021-03-28T11:36:11.245Z</time>
      </trkpt>
      <trkpt lat="46.83552" lon="6.68909">
        <ele>453.6</ele>
        <time>2021-03-28T11:36:18.274Z</time>
      </trkpt>
      <trkpt lat="46.83535" lon="6.68925">
        <ele>452.27</ele>
        <time>2021-03-28T11:36:22.426Z</time>
      </trkpt>
      <trkpt lat="46.83527" lon="6.68933">
        <ele>451.76</ele>
        <time>2021-03-28T11:36:24.639Z</time>
      </trkpt>
      <trkpt lat="46.83523" lon="6.68939">
        <ele>451.34</ele>
        <time>2021-03-28T11:36:25.915Z</time>
      </trkpt>
      <trkpt lat="46.8352" lon="6.68945">
        <ele>451.02</ele>
        <time>2021-03-28T11:36:26.982Z</time>
      </trkpt>
      <trkpt lat="46.83517" lon="6.68952">
        <ele>450.57</ele>
        <time>2021-03-28T11:36:28.240Z</time>
      </trkpt>
      <trkpt lat="46.83514" lon="6.6896">
        <ele>450.13</ele>
        <time>2021-03-28T11:36:29.630Z</time>
      </trkpt>
      <trkpt lat="46.8351" lon="6.68983">
        <ele>448.72</ele>
        <time>2021-03-28T11:36:33.245Z</time>
      </trkpt>
      <trkpt lat="46.83509" lon="6.68989">
        <ele>448.42</ele>
        <time>2021-03-28T11:36:34.186Z</time>
      </trkpt>
      <trkpt lat="46.83508" lon="6.68997">
        <ele>448.07</ele>
        <time>2021-03-28T11:36:35.354Z</time>
      </trkpt>
      <trkpt lat="46.83506" lon="6.69012">
        <ele>447.28</ele>
        <time>2021-03-28T11:36:37.681Z</time>
      </trkpt>
      <trkpt lat="46.83503" lon="6.69023">
        <ele>446.6</ele>
        <time>2021-03-28T11:36:39.485Z</time>
      </trkpt>
      <trkpt lat="46.83499" lon="6.69031">
        <ele>446.12</ele>
        <time>2021-03-28T11:36:40.994Z</time>
      </trkpt>
      <trkpt lat="46.83496" lon="6.69036">
        <ele>445.59</ele>
        <time>2021-03-28T11:36:42.007Z</time>
      </trkpt>
      <trkpt lat="46.83492" lon="6.69041">
        <ele>445.36</ele>
        <time>2021-03-28T11:36:43.307Z</time>
      </trkpt>
      <trkpt lat="46.8349" lon="6.69043">
        <ele>445.15</ele>
        <time>2021-03-28T11:36:43.847Z</time>
      </trkpt>
      <trkpt lat="46.83486" lon="6.69045">
        <ele>444.79</ele>
        <time>2021-03-28T11:36:44.788Z</time>
      </trkpt>
      <trkpt lat="46.8348" lon="6.69047">
        <ele>444.14</ele>
        <time>2021-03-28T11:36:46.158Z</time>
      </trkpt>
      <trkpt lat="46.8347" lon="6.69049">
        <ele>443.6</ele>
        <time>2021-03-28T11:36:48.445Z</time>
      </trkpt>
      <trkpt lat="46.83457" lon="6.69051">
        <ele>442.73</ele>
        <time>2021-03-28T11:36:51.114Z</time>
      </trkpt>
      <trkpt lat="46.83444" lon="6.69052">
        <ele>441.85</ele>
        <time>2021-03-28T11:36:54.012Z</time>
      </trkpt>
      <trkpt lat="46.8343" lon="6.69053">
        <ele>441.13</ele>
        <time>2021-03-28T11:36:57.247Z</time>
      </trkpt>
      <trkpt lat="46.83423" lon="6.69055">
        <ele>440.74</ele>
        <time>2021-03-28T11:36:58.847Z</time>
      </trkpt>
      <trkpt lat="46.83414" lon="6.69058">
        <ele>440.16</ele>
        <time>2021-03-28T11:37:00.786Z</time>
      </trkpt>
      <trkpt lat="46.83405" lon="6.69063">
        <ele>439.61</ele>
        <time>2021-03-28T11:37:02.903Z</time>
      </trkpt>
      <trkpt lat="46.83394" lon="6.6907">
        <ele>438.75</ele>
        <time>2021-03-28T11:37:05.574Z</time>
      </trkpt>
      <trkpt lat="46.83374" lon="6.69083">
        <ele>437.04</ele>
        <time>2021-03-28T11:37:10.448Z</time>
      </trkpt>
      <trkpt lat="46.83351" lon="6.69101">
        <ele>435.72</ele>
        <time>2021-03-28T11:37:16.508Z</time>
      </trkpt>
      <trkpt lat="46.83339" lon="6.69108">
        <ele>435.19</ele>
        <time>2021-03-28T11:37:19.779Z</time>
      </trkpt>
      <trkpt lat="46.83337" lon="6.69111">
        <ele>435.25</ele>
        <time>2021-03-28T11:37:23.347Z</time>
      </trkpt>
      <trkpt lat="46.83334" lon="6.69115">
        <ele>435.19</ele>
        <time>2021-03-28T11:37:24.712Z</time>
      </trkpt>
      <trkpt lat="46.83332" lon="6.69119">
        <ele>435.31</ele>
        <time>2021-03-28T11:37:29.760Z</time>
      </trkpt>
      <trkpt lat="46.83332" lon="6.69124">
        <ele>435.53</ele>
        <time>2021-03-28T11:37:36.401Z</time>
      </trkpt>
      <trkpt lat="46.83333" lon="6.69129">
        <ele>435.36</ele>
        <time>2021-03-28T11:37:37.250Z</time>
      </trkpt>
      <trkpt lat="46.83342" lon="6.69151">
        <ele>435.37</ele>
        <time>2021-03-28T11:37:54.989Z</time>
      </trkpt>
      <trkpt lat="46.83394" lon="6.69263">
        <ele>431.67</ele>
        <time>2021-03-28T11:38:18.672Z</time>
      </trkpt>
      <trkpt lat="46.83388" lon="6.69268">
        <ele>430.85</ele>
        <time>2021-03-28T11:38:20.210Z</time>
      </trkpt>
      <trkpt lat="46.8337" lon="6.69282">
        <ele>430.79</ele>
        <time>2021-03-28T11:38:39.842Z</time>
      </trkpt>
      <trkpt lat="46.83343" lon="6.69305">
        <ele>431.09</ele>
        <time>2021-03-28T11:39:14.320Z</time>
      </trkpt>
      <trkpt lat="46.83343" lon="6.69305">
        <ele>431.09</ele>
        <time>2021-03-28T11:39:14.320Z</time>
      </trkpt>
      <trkpt lat="46.83286" lon="6.69352">
        <ele>431.4</ele>
        <time>2021-03-28T11:40:23.161Z</time>
      </trkpt>
      <trkpt lat="46.83278" lon="6.69358">
        <ele>431.06</ele>
        <time>2021-03-28T11:40:25.509Z</time>
      </trkpt>
      <trkpt lat="46.83276" lon="6.69359">
        <ele>431.19</ele>
        <time>2021-03-28T11:40:29.531Z</time>
      </trkpt>
      <trkpt lat="46.83274" lon="6.6936">
        <ele>431.13</ele>
        <time>2021-03-28T11:40:30.138Z</time>
      </trkpt>
      <trkpt lat="46.83271" lon="6.69359">
        <ele>431.03</ele>
        <time>2021-03-28T11:40:30.985Z</time>
      </trkpt>
      <trkpt lat="46.8327" lon="6.69358">
        <ele>431.07</ele>
        <time>2021-03-28T11:40:32.733Z</time>
      </trkpt>
      <trkpt lat="46.83276" lon="6.69377">
        <ele>431.08</ele>
        <time>2021-03-28T11:40:47.232Z</time>
      </trkpt>
      <trkpt lat="46.83288" lon="6.69405">
        <ele>430.88</ele>
        <time>2021-03-28T11:40:55.440Z</time>
      </trkpt>
      <trkpt lat="46.83319" lon="6.69473">
        <ele>431.54</ele>
        <time>2021-03-28T11:41:58.515Z</time>
      </trkpt>
      <trkpt lat="46.83347" lon="6.69538">
        <ele>431.42</ele>
        <time>2021-03-28T11:42:49.606Z</time>
      </trkpt>
      <trkpt lat="46.83362" lon="6.69568">
        <ele>431.73</ele>
        <time>2021-03-28T11:43:18.402Z</time>
      </trkpt>
      <trkpt lat="46.8338" lon="6.69602">
        <ele>431.63</ele>
        <time>2021-03-28T11:43:46.533Z</time>
      </trkpt>
      <trkpt lat="46.83387" lon="6.69614">
        <ele>431.75</ele>
        <time>2021-03-28T11:43:58.621Z</time>
      </trkpt>
      <trkpt lat="46.83393" lon="6.69622">
        <ele>431.57</ele>
        <time>2021-03-28T11:44:01.120Z</time>
      </trkpt>
      <trkpt lat="46.83398" lon="6.6963">
        <ele>431.7</ele>
        <time>2021-03-28T11:44:10.007Z</time>
      </trkpt>
      <trkpt lat="46.83403" lon="6.69636">
        <ele>431.7</ele>
        <time>2021-03-28T11:44:16.517Z</time>
      </trkpt>
      <trkpt lat="46.83407" lon="6.6964">
        <ele>431.57</ele>
        <time>2021-03-28T11:44:17.933Z</time>
      </trkpt>
      <trkpt lat="46.83406" lon="6.6964">
        <ele>431.57</ele>
        <time>2021-03-28T11:44:18.940Z</time>
      </trkpt>
      <trkpt lat="46.83431" lon="6.69667">
        <ele>431.45</ele>
        <time>2021-03-28T11:44:48.471Z</time>
      </trkpt>
      <trkpt lat="46.83437" lon="6.69673">
        <ele>431.51</ele>
        <time>2021-03-28T11:44:56.385Z</time>
      </trkpt>
      <trkpt lat="46.83441" lon="6.69679">
        <ele>431.77</ele>
        <time>2021-03-28T11:45:06.172Z</time>
      </trkpt>
      <trkpt lat="46.83445" lon="6.69687">
        <ele>431.82</ele>
        <time>2021-03-28T11:45:13.487Z</time>
      </trkpt>
      <trkpt lat="46.8345" lon="6.69697">
        <ele>431.95</ele>
        <time>2021-03-28T11:45:23.408Z</time>
      </trkpt>
      <trkpt lat="46.83454" lon="6.69708">
        <ele>431.86</ele>
        <time>2021-03-28T11:45:26.433Z</time>
      </trkpt>
      <trkpt lat="46.83479" lon="6.69777">
        <ele>431.96</ele>
        <time>2021-03-28T11:46:21.120Z</time>
      </trkpt>
      <trkpt lat="46.83505" lon="6.69844">
        <ele>431.84</ele>
        <time>2021-03-28T11:47:12.359Z</time>
      </trkpt>
      <trkpt lat="46.83517" lon="6.6985">
        <ele>431.73</ele>
        <time>2021-03-28T11:47:16.975Z</time>
      </trkpt>
      <trkpt lat="46.83524" lon="6.69853">
        <ele>431.75</ele>
        <time>2021-03-28T11:47:24.504Z</time>
      </trkpt>
      <trkpt lat="46.83531" lon="6.69857">
        <ele>431.7</ele>
        <time>2021-03-28T11:47:31.368Z</time>
      </trkpt>
      <trkpt lat="46.83537" lon="6.69862">
        <ele>431.85</ele>
        <time>2021-03-28T11:47:40.043Z</time>
      </trkpt>
      <trkpt lat="46.83543" lon="6.69868">
        <ele>431.79</ele>
        <time>2021-03-28T11:47:42.704Z</time>
      </trkpt>
      <trkpt lat="46.83551" lon="6.69879">
        <ele>431.65</ele>
        <time>2021-03-28T11:47:46.493Z</time>
      </trkpt>
      <trkpt lat="46.83556" lon="6.69888">
        <ele>431.79</ele>
        <time>2021-03-28T11:47:56.013Z</time>
      </trkpt>
      <trkpt lat="46.83566" lon="6.69909">
        <ele>431.7</ele>
        <time>2021-03-28T11:48:12.341Z</time>
      </trkpt>
      <trkpt lat="46.83569" lon="6.69917">
        <ele>431.7</ele>
        <time>2021-03-28T11:48:18.621Z</time>
      </trkpt>
      <trkpt lat="46.83572" lon="6.69927">
        <ele>431.63</ele>
        <time>2021-03-28T11:48:21.314Z</time>
      </trkpt>
      <trkpt lat="46.83573" lon="6.69935">
        <ele>431.9</ele>
        <time>2021-03-28T11:48:31.010Z</time>
      </trkpt>
      <trkpt lat="46.83576" lon="6.69947">
        <ele>431.79</ele>
        <time>2021-03-28T11:48:34.031Z</time>
      </trkpt>
      <trkpt lat="46.83578" lon="6.69957">
        <ele>431.75</ele>
        <time>2021-03-28T11:48:40.635Z</time>
      </trkpt>
      <trkpt lat="46.8358" lon="6.69964">
        <ele>431.78</ele>
        <time>2021-03-28T11:48:46.149Z</time>
      </trkpt>
      <trkpt lat="46.83584" lon="6.69974">
        <ele>431.67</ele>
        <time>2021-03-28T11:48:48.844Z</time>
      </trkpt>
      <trkpt lat="46.83587" lon="6.69981">
        <ele>431.51</ele>
        <time>2021-03-28T11:48:50.469Z</time>
      </trkpt>
      <trkpt lat="46.8359" lon="6.69987">
        <ele>431.72</ele>
        <time>2021-03-28T11:48:58.698Z</time>
      </trkpt>
      <trkpt lat="46.83594" lon="6.69991">
        <ele>431.57</ele>
        <time>2021-03-28T11:49:00.054Z</time>
      </trkpt>
      <trkpt lat="46.83601" lon="6.69998">
        <ele>431.68</ele>
        <time>2021-03-28T11:49:09.739Z</time>
      </trkpt>
      <trkpt lat="46.83606" lon="6.70004">
        <ele>431.78</ele>
        <time>2021-03-28T11:49:17.322Z</time>
      </trkpt>
      <trkpt lat="46.83612" lon="6.70009">
        <ele>431.83</ele>
        <time>2021-03-28T11:49:24.765Z</time>
      </trkpt>
      <trkpt lat="46.83616" lon="6.70015">
        <ele>431.8</ele>
        <time>2021-03-28T11:49:30.104Z</time>
      </trkpt>
      <trkpt lat="46.83619" lon="6.7002">
        <ele>431.81</ele>
        <time>2021-03-28T11:49:34.777Z</time>
      </trkpt>
      <trkpt lat="46.83622" lon="6.70025">
        <ele>431.8</ele>
        <time>2021-03-28T11:49:39.206Z</time>
      </trkpt>
      <trkpt lat="46.83624" lon="6.70032">
        <ele>431.75</ele>
        <time>2021-03-28T11:49:41.070Z</time>
      </trkpt>
      <trkpt lat="46.83628" lon="6.70043">
        <ele>431.68</ele>
        <time>2021-03-28T11:49:44.191Z</time>
      </trkpt>
      <trkpt lat="46.8363" lon="6.7005">
        <ele>431.63</ele>
        <time>2021-03-28T11:49:46.056Z</time>
      </trkpt>
      <trkpt lat="46.83634" lon="6.70059">
        <ele>431.69</ele>
        <time>2021-03-28T11:49:54.042Z</time>
      </trkpt>
      <trkpt lat="46.83638" lon="6.70067">
        <ele>431.61</ele>
        <time>2021-03-28T11:49:56.409Z</time>
      </trkpt>
      <trkpt lat="46.8364" lon="6.70075">
        <ele>431.58</ele>
        <time>2021-03-28T11:50:01.843Z</time>
      </trkpt>
      <trkpt lat="46.83643" lon="6.70081">
        <ele>431.56</ele>
        <time>2021-03-28T11:50:06.668Z</time>
      </trkpt>
      <trkpt lat="46.83645" lon="6.70089">
        <ele>431.48</ele>
        <time>2021-03-28T11:50:08.653Z</time>
      </trkpt>
      <trkpt lat="46.83646" lon="6.70097">
        <ele>431.3</ele>
        <time>2021-03-28T11:50:10.187Z</time>
      </trkpt>
      <trkpt lat="46.83649" lon="6.70107">
        <ele>431.51</ele>
        <time>2021-03-28T11:50:20.310Z</time>
      </trkpt>
      <trkpt lat="46.83654" lon="6.70123">
        <ele>431.66</ele>
        <time>2021-03-28T11:50:33.980Z</time>
      </trkpt>
      <trkpt lat="46.8367" lon="6.70169">
        <ele>431.63</ele>
        <time>2021-03-28T11:51:09.046Z</time>
      </trkpt>
      <trkpt lat="46.83676" lon="6.70187">
        <ele>431.79</ele>
        <time>2021-03-28T11:51:24.481Z</time>
      </trkpt>
      <trkpt lat="46.8368" lon="6.70198">
        <ele>431.91</ele>
        <time>2021-03-28T11:51:34.326Z</time>
      </trkpt>
      <trkpt lat="46.83685" lon="6.7021">
        <ele>431.95</ele>
        <time>2021-03-28T11:51:44.382Z</time>
      </trkpt>
      <trkpt lat="46.83692" lon="6.70229">
        <ele>431.89</ele>
        <time>2021-03-28T11:51:58.366Z</time>
      </trkpt>
      <trkpt lat="46.83696" lon="6.70242">
        <ele>431.94</ele>
        <time>2021-03-28T11:52:08.662Z</time>
      </trkpt>
      <trkpt lat="46.83699" lon="6.70254">
        <ele>431.97</ele>
        <time>2021-03-28T11:52:17.742Z</time>
      </trkpt>
      <trkpt lat="46.83701" lon="6.70268">
        <ele>432.02</ele>
        <time>2021-03-28T11:52:28.071Z</time>
      </trkpt>
      <trkpt lat="46.83703" lon="6.70275">
        <ele>432.07</ele>
        <time>2021-03-28T11:52:33.798Z</time>
      </trkpt>
      <trkpt lat="46.83706" lon="6.70282">
        <ele>432.1</ele>
        <time>2021-03-28T11:52:39.775Z</time>
      </trkpt>
      <trkpt lat="46.8371" lon="6.70289">
        <ele>432.09</ele>
        <time>2021-03-28T11:52:45.903Z</time>
      </trkpt>
      <trkpt lat="46.83716" lon="6.70302">
        <ele>431.93</ele>
        <time>2021-03-28T11:52:49.504Z</time>
      </trkpt>
      <trkpt lat="46.8372" lon="6.70307">
        <ele>431.96</ele>
        <time>2021-03-28T11:52:55.091Z</time>
      </trkpt>
      <trkpt lat="46.83733" lon="6.70332">
        <ele>431.94</ele>
        <time>2021-03-28T11:53:16.404Z</time>
      </trkpt>
      <trkpt lat="46.83738" lon="6.70344">
        <ele>431.95</ele>
        <time>2021-03-28T11:53:26.169Z</time>
      </trkpt>
      <trkpt lat="46.83746" lon="6.70365">
        <ele>431.79</ele>
        <time>2021-03-28T11:53:32.069Z</time>
      </trkpt>
      <trkpt lat="46.83751" lon="6.70373">
        <ele>432.2</ele>
        <time>2021-03-28T11:53:45.582Z</time>
      </trkpt>
      <trkpt lat="46.83756" lon="6.70378">
        <ele>432.42</ele>
        <time>2021-03-28T11:53:54.717Z</time>
      </trkpt>
      <trkpt lat="46.83772" lon="6.70393">
        <ele>433.13</ele>
        <time>2021-03-28T11:54:23.791Z</time>
      </trkpt>
      <trkpt lat="46.83778" lon="6.704">
        <ele>433.28</ele>
        <time>2021-03-28T11:54:33.200Z</time>
      </trkpt>
      <trkpt lat="46.83784" lon="6.70409">
        <ele>433.36</ele>
        <time>2021-03-28T11:54:42.657Z</time>
      </trkpt>
      <trkpt lat="46.83788" lon="6.70417">
        <ele>433.51</ele>
        <time>2021-03-28T11:54:51.212Z</time>
      </trkpt>
      <trkpt lat="46.83796" lon="6.70431">
        <ele>433.28</ele>
        <time>2021-03-28T11:54:55.224Z</time>
      </trkpt>
      <trkpt lat="46.83807" lon="6.70456">
        <ele>433.58</ele>
        <time>2021-03-28T11:55:18.883Z</time>
      </trkpt>
      <trkpt lat="46.83821" lon="6.70484">
        <ele>433.71</ele>
        <time>2021-03-28T11:55:44.018Z</time>
      </trkpt>
      <trkpt lat="46.83838" lon="6.70516">
        <ele>433.86</ele>
        <time>2021-03-28T11:56:13.362Z</time>
      </trkpt>
      <trkpt lat="46.83851" lon="6.70538">
        <ele>433.79</ele>
        <time>2021-03-28T11:56:32.350Z</time>
      </trkpt>
      <trkpt lat="46.83881" lon="6.7058">
        <ele>434.04</ele>
        <time>2021-03-28T11:57:16.587Z</time>
      </trkpt>
      <trkpt lat="46.83901" lon="6.70605">
        <ele>434.16</ele>
        <time>2021-03-28T11:57:44.221Z</time>
      </trkpt>
      <trkpt lat="46.83921" lon="6.70629">
        <ele>433.7</ele>
        <time>2021-03-28T11:57:52.606Z</time>
      </trkpt>
      <trkpt lat="46.83938" lon="6.70649">
        <ele>433.63</ele>
        <time>2021-03-28T11:58:13.536Z</time>
      </trkpt>
      <trkpt lat="46.83944" lon="6.70656">
        <ele>433.75</ele>
        <time>2021-03-28T11:58:22.551Z</time>
      </trkpt>
      <trkpt lat="46.83948" lon="6.70659">
        <ele>434</ele>
        <time>2021-03-28T11:58:30.763Z</time>
      </trkpt>
      <trkpt lat="46.83952" lon="6.70662">
        <ele>434.38</ele>
        <time>2021-03-28T11:58:40.986Z</time>
      </trkpt>
      <trkpt lat="46.83956" lon="6.70663">
        <ele>434.5</ele>
        <time>2021-03-28T11:58:46.587Z</time>
      </trkpt>
      <trkpt lat="46.8396" lon="6.70662">
        <ele>435.1</ele>
        <time>2021-03-28T11:59:02.337Z</time>
      </trkpt>
      <trkpt lat="46.83961" lon="6.70666">
        <ele>434.79</ele>
        <time>2021-03-28T11:59:02.986Z</time>
      </trkpt>
      <trkpt lat="46.83962" lon="6.70671">
        <ele>434.5</ele>
        <time>2021-03-28T11:59:03.779Z</time>
      </trkpt>
      <trkpt lat="46.83966" lon="6.70678">
        <ele>434.44</ele>
        <time>2021-03-28T11:59:06.022Z</time>
      </trkpt>
      <trkpt lat="46.83975" lon="6.7069">
        <ele>433.98</ele>
        <time>2021-03-28T11:59:09.203Z</time>
      </trkpt>
      <trkpt lat="46.83986" lon="6.70702">
        <ele>433.25</ele>
        <time>2021-03-28T11:59:12.321Z</time>
      </trkpt>
      <trkpt lat="46.84023" lon="6.70748">
        <ele>432.65</ele>
        <time>2021-03-28T11:59:29.161Z</time>
      </trkpt>
      <trkpt lat="46.84053" lon="6.70784">
        <ele>432.65</ele>
        <time>2021-03-28T12:00:08.217Z</time>
      </trkpt>
      <trkpt lat="46.84062" lon="6.70794">
        <ele>432.73</ele>
        <time>2021-03-28T12:00:20.381Z</time>
      </trkpt>
      <trkpt lat="46.84061" lon="6.70794">
        <ele>432.73</ele>
        <time>2021-03-28T12:00:21.387Z</time>
      </trkpt>
      <trkpt lat="46.84072" lon="6.70806">
        <ele>432.82</ele>
        <time>2021-03-28T12:00:36.081Z</time>
      </trkpt>
      <trkpt lat="46.84097" lon="6.70836">
        <ele>432.97</ele>
        <time>2021-03-28T12:01:10.071Z</time>
      </trkpt>
      <trkpt lat="46.84107" lon="6.70849">
        <ele>432.95</ele>
        <time>2021-03-28T12:01:23.235Z</time>
      </trkpt>
      <trkpt lat="46.84121" lon="6.70866">
        <ele>432.75</ele>
        <time>2021-03-28T12:01:29.658Z</time>
      </trkpt>
      <trkpt lat="46.84176" lon="6.70936">
        <ele>432.75</ele>
        <time>2021-03-28T12:02:43.037Z</time>
      </trkpt>
      <trkpt lat="46.84203" lon="6.70968">
        <ele>432.84</ele>
        <time>2021-03-28T12:03:18.863Z</time>
      </trkpt>
      <trkpt lat="46.8423" lon="6.71005">
        <ele>432.72</ele>
        <time>2021-03-28T12:03:54.339Z</time>
      </trkpt>
      <trkpt lat="46.84299" lon="6.71101">
        <ele>432.05</ele>
        <time>2021-03-28T12:05:20.863Z</time>
      </trkpt>
      <trkpt lat="46.84308" lon="6.71113">
        <ele>432.2</ele>
        <time>2021-03-28T12:05:34.679Z</time>
      </trkpt>
      <trkpt lat="46.84318" lon="6.71123">
        <ele>432.2</ele>
        <time>2021-03-28T12:05:46.870Z</time>
      </trkpt>
      <trkpt lat="46.84329" lon="6.71133">
        <ele>432.22</ele>
        <time>2021-03-28T12:06:00.091Z</time>
      </trkpt>
      <trkpt lat="46.84359" lon="6.71163">
        <ele>432.48</ele>
        <time>2021-03-28T12:06:39.230Z</time>
      </trkpt>
      <trkpt lat="46.84384" lon="6.71184">
        <ele>432.35</ele>
        <time>2021-03-28T12:07:06.369Z</time>
      </trkpt>
      <trkpt lat="46.84392" lon="6.71191">
        <ele>432.75</ele>
        <time>2021-03-28T12:07:21.824Z</time>
      </trkpt>
      <trkpt lat="46.84398" lon="6.71198">
        <ele>432.48</ele>
        <time>2021-03-28T12:07:23.881Z</time>
      </trkpt>
      <trkpt lat="46.84402" lon="6.71203">
        <ele>432.55</ele>
        <time>2021-03-28T12:07:29.912Z</time>
      </trkpt>
      <trkpt lat="46.84405" lon="6.7121">
        <ele>432.5</ele>
        <time>2021-03-28T12:07:31.963Z</time>
      </trkpt>
      <trkpt lat="46.84412" lon="6.71217">
        <ele>432.63</ele>
        <time>2021-03-28T12:07:41.891Z</time>
      </trkpt>
      <trkpt lat="46.84419" lon="6.71224">
        <ele>432.66</ele>
        <time>2021-03-28T12:07:50.711Z</time>
      </trkpt>
      <trkpt lat="46.84429" lon="6.71234">
        <ele>432.67</ele>
        <time>2021-03-28T12:08:02.995Z</time>
      </trkpt>
      <trkpt lat="46.84437" lon="6.7124">
        <ele>432.68</ele>
        <time>2021-03-28T12:08:12.136Z</time>
      </trkpt>
      <trkpt lat="46.84442" lon="6.71242">
        <ele>432.95</ele>
        <time>2021-03-28T12:08:21.383Z</time>
      </trkpt>
      <trkpt lat="46.84449" lon="6.71243">
        <ele>433.21</ele>
        <time>2021-03-28T12:08:32.084Z</time>
      </trkpt>
      <trkpt lat="46.84457" lon="6.71243">
        <ele>433.45</ele>
        <time>2021-03-28T12:08:43.185Z</time>
      </trkpt>
      <trkpt lat="46.84463" lon="6.71243">
        <ele>434.07</ele>
        <time>2021-03-28T12:08:59.412Z</time>
      </trkpt>
      <trkpt lat="46.84469" lon="6.71241">
        <ele>434.38</ele>
        <time>2021-03-28T12:09:10.267Z</time>
      </trkpt>
      <trkpt lat="46.84457" lon="6.71269">
        <ele>432.07</ele>
        <time>2021-03-28T12:09:15.299Z</time>
      </trkpt>
      <trkpt lat="46.8444" lon="6.71318">
        <ele>430.82</ele>
        <time>2021-03-28T12:09:25.564Z</time>
      </trkpt>
      <trkpt lat="46.84445" lon="6.71324">
        <ele>430.84</ele>
        <time>2021-03-28T12:09:32.262Z</time>
      </trkpt>
      <trkpt lat="46.8445" lon="6.71327">
        <ele>430.82</ele>
        <time>2021-03-28T12:09:37.409Z</time>
      </trkpt>
      <trkpt lat="46.84452" lon="6.71332">
        <ele>430.72</ele>
        <time>2021-03-28T12:09:38.587Z</time>
      </trkpt>
      <trkpt lat="46.84456" lon="6.71334">
        <ele>430.8</ele>
        <time>2021-03-28T12:09:43.733Z</time>
      </trkpt>
      <trkpt lat="46.8446" lon="6.71343">
        <ele>430.76</ele>
        <time>2021-03-28T12:09:50.551Z</time>
      </trkpt>
      <trkpt lat="46.84462" lon="6.71345">
        <ele>430.76</ele>
        <time>2021-03-28T12:09:52.989Z</time>
      </trkpt>
      <trkpt lat="46.84465" lon="6.71346">
        <ele>430.73</ele>
        <time>2021-03-28T12:09:54.093Z</time>
      </trkpt>
      <trkpt lat="46.84473" lon="6.71354">
        <ele>430.45</ele>
        <time>2021-03-28T12:09:56.863Z</time>
      </trkpt>
      <trkpt lat="46.84475" lon="6.71355">
        <ele>430.42</ele>
        <time>2021-03-28T12:09:57.579Z</time>
      </trkpt>
      <trkpt lat="46.84481" lon="6.71356">
        <ele>430.69</ele>
        <time>2021-03-28T12:10:07.849Z</time>
      </trkpt>
      <trkpt lat="46.84485" lon="6.71359">
        <ele>430.67</ele>
        <time>2021-03-28T12:10:12.084Z</time>
      </trkpt>
      <trkpt lat="46.84489" lon="6.71377">
        <ele>430.48</ele>
        <time>2021-03-28T12:10:16.442Z</time>
      </trkpt>
      <trkpt lat="46.84491" lon="6.7138">
        <ele>430.42</ele>
        <time>2021-03-28T12:10:17.336Z</time>
      </trkpt>
      <trkpt lat="46.84495" lon="6.71381">
        <ele>430.32</ele>
        <time>2021-03-28T12:10:18.551Z</time>
      </trkpt>
      <trkpt lat="46.845" lon="6.71381">
        <ele>430.28</ele>
        <time>2021-03-28T12:10:20.387Z</time>
      </trkpt>
      <trkpt lat="46.84506" lon="6.71378">
        <ele>430.45</ele>
        <time>2021-03-28T12:10:28.845Z</time>
      </trkpt>
      <trkpt lat="46.84511" lon="6.71375">
        <ele>430.6</ele>
        <time>2021-03-28T12:10:36.138Z</time>
      </trkpt>
      <trkpt lat="46.84514" lon="6.71376">
        <ele>430.58</ele>
        <time>2021-03-28T12:10:38.954Z</time>
      </trkpt>
      <trkpt lat="46.8452" lon="6.71377">
        <ele>430.47</ele>
        <time>2021-03-28T12:10:40.900Z</time>
      </trkpt>
      <trkpt lat="46.84524" lon="6.71377">
        <ele>430.5</ele>
        <time>2021-03-28T12:10:45.222Z</time>
      </trkpt>
      <trkpt lat="46.8453" lon="6.71374">
        <ele>430.55</ele>
        <time>2021-03-28T12:10:52.100Z</time>
      </trkpt>
      <trkpt lat="46.84531" lon="6.71374">
        <ele>430.54</ele>
        <time>2021-03-28T12:10:52.457Z</time>
      </trkpt>
      <trkpt lat="46.84535" lon="6.71371">
        <ele>430.52</ele>
        <time>2021-03-28T12:10:56.693Z</time>
      </trkpt>
      <trkpt lat="46.84539" lon="6.71368">
        <ele>430.66</ele>
        <time>2021-03-28T12:11:03.022Z</time>
      </trkpt>
      <trkpt lat="46.84544" lon="6.71367">
        <ele>430.75</ele>
        <time>2021-03-28T12:11:09.091Z</time>
      </trkpt>
      <trkpt lat="46.84548" lon="6.71366">
        <ele>430.81</ele>
        <time>2021-03-28T12:11:13.815Z</time>
      </trkpt>
      <trkpt lat="46.84552" lon="6.71366">
        <ele>430.92</ele>
        <time>2021-03-28T12:11:19.195Z</time>
      </trkpt>
      <trkpt lat="46.84555" lon="6.71368">
        <ele>430.92</ele>
        <time>2021-03-28T12:11:22.513Z</time>
      </trkpt>
      <trkpt lat="46.84557" lon="6.71371">
        <ele>430.86</ele>
        <time>2021-03-28T12:11:23.407Z</time>
      </trkpt>
      <trkpt lat="46.8456" lon="6.71371">
        <ele>430.9</ele>
        <time>2021-03-28T12:11:26.846Z</time>
      </trkpt>
      <trkpt lat="46.84564" lon="6.71374">
        <ele>430.87</ele>
        <time>2021-03-28T12:11:30.950Z</time>
      </trkpt>
      <trkpt lat="46.84567" lon="6.71377">
        <ele>430.88</ele>
        <time>2021-03-28T12:11:34.702Z</time>
      </trkpt>
      <trkpt lat="46.84568" lon="6.7138">
        <ele>430.91</ele>
        <time>2021-03-28T12:11:37.313Z</time>
      </trkpt>
      <trkpt lat="46.84572" lon="6.71382">
        <ele>430.89</ele>
        <time>2021-03-28T12:11:41.280Z</time>
      </trkpt>
      <trkpt lat="46.84581" lon="6.71382">
        <ele>431.07</ele>
        <time>2021-03-28T12:11:52.368Z</time>
      </trkpt>
      <trkpt lat="46.84584" lon="6.71385">
        <ele>430.97</ele>
        <time>2021-03-28T12:11:53.422Z</time>
      </trkpt>
      <trkpt lat="46.84586" lon="6.71389">
        <ele>430.96</ele>
        <time>2021-03-28T12:11:56.684Z</time>
      </trkpt>
      <trkpt lat="46.8459" lon="6.71393">
        <ele>430.76</ele>
        <time>2021-03-28T12:11:57.909Z</time>
      </trkpt>
      <trkpt lat="46.84597" lon="6.71401">
        <ele>430.75</ele>
        <time>2021-03-28T12:12:06.698Z</time>
      </trkpt>
      <trkpt lat="46.846" lon="6.71404">
        <ele>430.71</ele>
        <time>2021-03-28T12:12:07.980Z</time>
      </trkpt>
      <trkpt lat="46.84604" lon="6.71412">
        <ele>430.69</ele>
        <time>2021-03-28T12:12:14.505Z</time>
      </trkpt>
      <trkpt lat="46.84608" lon="6.71416">
        <ele>430.65</ele>
        <time>2021-03-28T12:12:16.279Z</time>
      </trkpt>
      <trkpt lat="46.84611" lon="6.71419">
        <ele>430.7</ele>
        <time>2021-03-28T12:12:20.464Z</time>
      </trkpt>
      <trkpt lat="46.84616" lon="6.71425">
        <ele>430.66</ele>
        <time>2021-03-28T12:12:26.410Z</time>
      </trkpt>
      <trkpt lat="46.84619" lon="6.7143">
        <ele>430.56</ele>
        <time>2021-03-28T12:12:27.813Z</time>
      </trkpt>
      <trkpt lat="46.84623" lon="6.71433">
        <ele>430.6</ele>
        <time>2021-03-28T12:12:32.738Z</time>
      </trkpt>
      <trkpt lat="46.84626" lon="6.71438">
        <ele>430.51</ele>
        <time>2021-03-28T12:12:34.177Z</time>
      </trkpt>
      <trkpt lat="46.84635" lon="6.71442">
        <ele>430.6</ele>
        <time>2021-03-28T12:12:44.552Z</time>
      </trkpt>
      <trkpt lat="46.84638" lon="6.71443">
        <ele>430.7</ele>
        <time>2021-03-28T12:12:48.961Z</time>
      </trkpt>
      <trkpt lat="46.84641" lon="6.71445">
        <ele>430.66</ele>
        <time>2021-03-28T12:12:50.107Z</time>
      </trkpt>
      <trkpt lat="46.84646" lon="6.71448">
        <ele>430.67</ele>
        <time>2021-03-28T12:12:55.640Z</time>
      </trkpt>
      <trkpt lat="46.84647" lon="6.71449">
        <ele>430.62</ele>
        <time>2021-03-28T12:12:55.946Z</time>
      </trkpt>
      <trkpt lat="46.84648" lon="6.71454">
        <ele>430.55</ele>
        <time>2021-03-28T12:12:57.075Z</time>
      </trkpt>
      <trkpt lat="46.8465" lon="6.71457">
        <ele>430.46</ele>
        <time>2021-03-28T12:12:57.872Z</time>
      </trkpt>
      <trkpt lat="46.84653" lon="6.71459">
        <ele>430.56</ele>
        <time>2021-03-28T12:13:02.466Z</time>
      </trkpt>
      <trkpt lat="46.84654" lon="6.71461">
        <ele>430.52</ele>
        <time>2021-03-28T12:13:02.980Z</time>
      </trkpt>
      <trkpt lat="46.84663" lon="6.71469">
        <ele>430.72</ele>
        <time>2021-03-28T12:13:15.810Z</time>
      </trkpt>
      <trkpt lat="46.84667" lon="6.71476">
        <ele>430.82</ele>
        <time>2021-03-28T12:13:23.168Z</time>
      </trkpt>
      <trkpt lat="46.84671" lon="6.71483">
        <ele>430.62</ele>
        <time>2021-03-28T12:13:24.893Z</time>
      </trkpt>
      <trkpt lat="46.84674" lon="6.71491">
        <ele>430.44</ele>
        <time>2021-03-28T12:13:26.678Z</time>
      </trkpt>
      <trkpt lat="46.84677" lon="6.71497">
        <ele>430.38</ele>
        <time>2021-03-28T12:13:28.453Z</time>
      </trkpt>
      <trkpt lat="46.84689" lon="6.71518">
        <ele>430.38</ele>
        <time>2021-03-28T12:13:47.286Z</time>
      </trkpt>
      <trkpt lat="46.84693" lon="6.71525">
        <ele>430.42</ele>
        <time>2021-03-28T12:13:53.956Z</time>
      </trkpt>
      <trkpt lat="46.84696" lon="6.71532">
        <ele>430.35</ele>
        <time>2021-03-28T12:13:55.914Z</time>
      </trkpt>
      <trkpt lat="46.84703" lon="6.71549">
        <ele>430.11</ele>
        <time>2021-03-28T12:14:00.317Z</time>
      </trkpt>
      <trkpt lat="46.8471" lon="6.71561">
        <ele>430.25</ele>
        <time>2021-03-28T12:14:12.636Z</time>
      </trkpt>
      <trkpt lat="46.84713" lon="6.7157">
        <ele>430.35</ele>
        <time>2021-03-28T12:14:20.591Z</time>
      </trkpt>
      <trkpt lat="46.84718" lon="6.71581">
        <ele>430.4</ele>
        <time>2021-03-28T12:14:30.166Z</time>
      </trkpt>
      <trkpt lat="46.8472" lon="6.71586">
        <ele>430.49</ele>
        <time>2021-03-28T12:14:35.200Z</time>
      </trkpt>
      <trkpt lat="46.84721" lon="6.7159">
        <ele>430.5</ele>
        <time>2021-03-28T12:14:38.226Z</time>
      </trkpt>
      <trkpt lat="46.84726" lon="6.71599">
        <ele>430.6</ele>
        <time>2021-03-28T12:14:47.248Z</time>
      </trkpt>
      <trkpt lat="46.8474" lon="6.71628">
        <ele>430.5</ele>
        <time>2021-03-28T12:15:10.228Z</time>
      </trkpt>
      <trkpt lat="46.84754" lon="6.7166">
        <ele>430.27</ele>
        <time>2021-03-28T12:15:19.661Z</time>
      </trkpt>
      <trkpt lat="46.84774" lon="6.71703">
        <ele>430.7</ele>
        <time>2021-03-28T12:15:59.907Z</time>
      </trkpt>
      <trkpt lat="46.84783" lon="6.71725">
        <ele>430.89</ele>
        <time>2021-03-28T12:16:19.494Z</time>
      </trkpt>
      <trkpt lat="46.84794" lon="6.7175">
        <ele>431.03</ele>
        <time>2021-03-28T12:16:41.330Z</time>
      </trkpt>
      <trkpt lat="46.84804" lon="6.71775">
        <ele>431.27</ele>
        <time>2021-03-28T12:17:03.750Z</time>
      </trkpt>
      <trkpt lat="46.84811" lon="6.71794">
        <ele>431.37</ele>
        <time>2021-03-28T12:17:19.586Z</time>
      </trkpt>
      <trkpt lat="46.84819" lon="6.71816">
        <ele>432.81</ele>
        <time>2021-03-28T12:17:58.328Z</time>
      </trkpt>
      <trkpt lat="46.84825" lon="6.71832">
        <ele>433.83</ele>
        <time>2021-03-28T12:18:26.051Z</time>
      </trkpt>
      <trkpt lat="46.84831" lon="6.71848">
        <ele>434.82</ele>
        <time>2021-03-28T12:18:53.232Z</time>
      </trkpt>
      <trkpt lat="46.84839" lon="6.71868">
        <ele>435.04</ele>
        <time>2021-03-28T12:19:11.501Z</time>
      </trkpt>
      <trkpt lat="46.84842" lon="6.71874">
        <ele>434.94</ele>
        <time>2021-03-28T12:19:13.112Z</time>
      </trkpt>
      <trkpt lat="46.84846" lon="6.71878">
        <ele>434.66</ele>
        <time>2021-03-28T12:19:14.172Z</time>
      </trkpt>
      <trkpt lat="46.8485" lon="6.71878">
        <ele>434.59</ele>
        <time>2021-03-28T12:19:15.472Z</time>
      </trkpt>
      <trkpt lat="46.84856" lon="6.71875">
        <ele>434.9</ele>
        <time>2021-03-28T12:19:26.549Z</time>
      </trkpt>
      <trkpt lat="46.84863" lon="6.7187">
        <ele>434.96</ele>
        <time>2021-03-28T12:19:34.983Z</time>
      </trkpt>
      <trkpt lat="46.84879" lon="6.71853">
        <ele>434.46</ele>
        <time>2021-03-28T12:19:40.862Z</time>
      </trkpt>
      <trkpt lat="46.84884" lon="6.71849">
        <ele>434.4</ele>
        <time>2021-03-28T12:19:42.885Z</time>
      </trkpt>
      <trkpt lat="46.84893" lon="6.71844">
        <ele>434.67</ele>
        <time>2021-03-28T12:19:55.922Z</time>
      </trkpt>
      <trkpt lat="46.84908" lon="6.7188">
        <ele>434.36</ele>
        <time>2021-03-28T12:20:06.129Z</time>
      </trkpt>
      <trkpt lat="46.84914" lon="6.71894">
        <ele>434.22</ele>
        <time>2021-03-28T12:20:10.044Z</time>
      </trkpt>
      <trkpt lat="46.8492" lon="6.71908">
        <ele>434.31</ele>
        <time>2021-03-28T12:20:22.310Z</time>
      </trkpt>
      <trkpt lat="46.84927" lon="6.7192">
        <ele>434.47</ele>
        <time>2021-03-28T12:20:34.871Z</time>
      </trkpt>
      <trkpt lat="46.84932" lon="6.7193">
        <ele>434.62</ele>
        <time>2021-03-28T12:20:45.046Z</time>
      </trkpt>
      <trkpt lat="46.84934" lon="6.71932">
        <ele>434.64</ele>
        <time>2021-03-28T12:20:47.684Z</time>
      </trkpt>
      <trkpt lat="46.84935" lon="6.71936">
        <ele>434.7</ele>
        <time>2021-03-28T12:20:51.296Z</time>
      </trkpt>
      <trkpt lat="46.84939" lon="6.71942">
        <ele>434.84</ele>
        <time>2021-03-28T12:20:58.725Z</time>
      </trkpt>
      <trkpt lat="46.84947" lon="6.71949">
        <ele>435.1</ele>
        <time>2021-03-28T12:21:11.325Z</time>
      </trkpt>
      <trkpt lat="46.84954" lon="6.7196">
        <ele>435.36</ele>
        <time>2021-03-28T12:21:24.785Z</time>
      </trkpt>
      <trkpt lat="46.84957" lon="6.71964">
        <ele>435.5</ele>
        <time>2021-03-28T12:21:30.757Z</time>
      </trkpt>
      <trkpt lat="46.84959" lon="6.71968">
        <ele>435.6</ele>
        <time>2021-03-28T12:21:35.430Z</time>
      </trkpt>
      <trkpt lat="46.84962" lon="6.7197">
        <ele>435.58</ele>
        <time>2021-03-28T12:21:38.466Z</time>
      </trkpt>
      <trkpt lat="46.84965" lon="6.71971">
        <ele>435.7</ele>
        <time>2021-03-28T12:21:43.283Z</time>
      </trkpt>
      <trkpt lat="46.8497" lon="6.71971">
        <ele>436.07</ele>
        <time>2021-03-28T12:21:53.722Z</time>
      </trkpt>
      <trkpt lat="46.84981" lon="6.71968">
        <ele>437.13</ele>
        <time>2021-03-28T12:22:21.573Z</time>
      </trkpt>
      <trkpt lat="46.84984" lon="6.71968">
        <ele>437.18</ele>
        <time>2021-03-28T12:22:25.136Z</time>
      </trkpt>
      <trkpt lat="46.84986" lon="6.7197">
        <ele>437.52</ele>
        <time>2021-03-28T12:22:34.540Z</time>
      </trkpt>
      <trkpt lat="46.84999" lon="6.71968">
        <ele>438.61</ele>
        <time>2021-03-28T12:23:03.980Z</time>
      </trkpt>
      <trkpt lat="46.85006" lon="6.71966">
        <ele>439.07</ele>
        <time>2021-03-28T12:23:17.847Z</time>
      </trkpt>
      <trkpt lat="46.85009" lon="6.71966">
        <ele>439.13</ele>
        <time>2021-03-28T12:23:21.543Z</time>
      </trkpt>
      <trkpt lat="46.85012" lon="6.71968">
        <ele>439.12</ele>
        <time>2021-03-28T12:23:24.713Z</time>
      </trkpt>
      <trkpt lat="46.8502" lon="6.71973">
        <ele>439.17</ele>
        <time>2021-03-28T12:23:33.954Z</time>
      </trkpt>
      <trkpt lat="46.85032" lon="6.71978">
        <ele>438.93</ele>
        <time>2021-03-28T12:23:37.928Z</time>
      </trkpt>
      <trkpt lat="46.85038" lon="6.7198">
        <ele>438.95</ele>
        <time>2021-03-28T12:23:44.311Z</time>
      </trkpt>
      <trkpt lat="46.85043" lon="6.72005">
        <ele>438.66</ele>
        <time>2021-03-28T12:23:50.189Z</time>
      </trkpt>
      <trkpt lat="46.85045" lon="6.72015">
        <ele>438.54</ele>
        <time>2021-03-28T12:23:52.525Z</time>
      </trkpt>
      <trkpt lat="46.85045" lon="6.72025">
        <ele>438.41</ele>
        <time>2021-03-28T12:23:54.709Z</time>
      </trkpt>
      <trkpt lat="46.85046" lon="6.72065">
        <ele>437.66</ele>
        <time>2021-03-28T12:24:02.659Z</time>
      </trkpt>
      <trkpt lat="46.85045" lon="6.7212">
        <ele>436.41</ele>
        <time>2021-03-28T12:24:12.940Z</time>
      </trkpt>
      <trkpt lat="46.85044" lon="6.72144">
        <ele>435.73</ele>
        <time>2021-03-28T12:24:17.091Z</time>
      </trkpt>
      <trkpt lat="46.85042" lon="6.7217">
        <ele>435.39</ele>
        <time>2021-03-28T12:24:22.805Z</time>
      </trkpt>
      <trkpt lat="46.85041" lon="6.72176">
        <ele>435.08</ele>
        <time>2021-03-28T12:24:23.746Z</time>
      </trkpt>
      <trkpt lat="46.85049" lon="6.72186">
        <ele>435.54</ele>
        <time>2021-03-28T12:24:41.407Z</time>
      </trkpt>
      <trkpt lat="46.8507" lon="6.72218">
        <ele>436.57</ele>
        <time>2021-03-28T12:25:25.708Z</time>
      </trkpt>
      <trkpt lat="46.85087" lon="6.72243">
        <ele>436.85</ele>
        <time>2021-03-28T12:25:52.858Z</time>
      </trkpt>
      <trkpt lat="46.85086" lon="6.72243">
        <ele>436.85</ele>
        <time>2021-03-28T12:25:53.864Z</time>
      </trkpt>
      <trkpt lat="46.85091" lon="6.72249">
        <ele>437.13</ele>
        <time>2021-03-28T12:26:04.650Z</time>
      </trkpt>
      <trkpt lat="46.85107" lon="6.72275">
        <ele>437.14</ele>
        <time>2021-03-28T12:26:28.812Z</time>
      </trkpt>
      <trkpt lat="46.85153" lon="6.72239">
        <ele>437.66</ele>
        <time>2021-03-28T12:27:26.588Z</time>
      </trkpt>
      <trkpt lat="46.85228" lon="6.72179">
        <ele>441.83</ele>
        <time>2021-03-28T12:29:55.816Z</time>
      </trkpt>
      <trkpt lat="46.85254" lon="6.72159">
        <ele>443.85</ele>
        <time>2021-03-28T12:30:54.751Z</time>
      </trkpt>
      <trkpt lat="46.85259" lon="6.7216">
        <ele>444.07</ele>
        <time>2021-03-28T12:31:03.205Z</time>
      </trkpt>
      <trkpt lat="46.8526" lon="6.72155">
        <ele>444.17</ele>
        <time>2021-03-28T12:31:08.031Z</time>
      </trkpt>
      <trkpt lat="46.85265" lon="6.72147">
        <ele>444.47</ele>
        <time>2021-03-28T12:31:19.883Z</time>
      </trkpt>
      <trkpt lat="46.85268" lon="6.72152">
        <ele>444.39</ele>
        <time>2021-03-28T12:31:21.361Z</time>
      </trkpt>
      <trkpt lat="46.85282" lon="6.72168">
        <ele>444.47</ele>
        <time>2021-03-28T12:31:40.010Z</time>
      </trkpt>
      <trkpt lat="46.85294" lon="6.72182">
        <ele>444.7</ele>
        <time>2021-03-28T12:31:57.915Z</time>
      </trkpt>
      <trkpt lat="46.85308" lon="6.72197">
        <ele>444.87</ele>
        <time>2021-03-28T12:32:17.101Z</time>
      </trkpt>
      <trkpt lat="46.8532" lon="6.72209">
        <ele>445.02</ele>
        <time>2021-03-28T12:32:33.257Z</time>
      </trkpt>
      <trkpt lat="46.85334" lon="6.7222">
        <ele>445.13</ele>
        <time>2021-03-28T12:32:50.332Z</time>
      </trkpt>
      <trkpt lat="46.85351" lon="6.72233">
        <ele>445.14</ele>
        <time>2021-03-28T12:33:09.729Z</time>
      </trkpt>
      <trkpt lat="46.85382" lon="6.72256">
        <ele>445.63</ele>
        <time>2021-03-28T12:33:49.895Z</time>
      </trkpt>
      <trkpt lat="46.854" lon="6.72269">
        <ele>446.05</ele>
        <time>2021-03-28T12:34:14.886Z</time>
      </trkpt>
      <trkpt lat="46.85418" lon="6.72283">
        <ele>446.23</ele>
        <time>2021-03-28T12:34:37.207Z</time>
      </trkpt>
      <trkpt lat="46.85418" lon="6.72285">
        <ele>446.22</ele>
        <time>2021-03-28T12:34:37.714Z</time>
      </trkpt>
      <trkpt lat="46.85417" lon="6.72287">
        <ele>446.2</ele>
        <time>2021-03-28T12:34:38.306Z</time>
      </trkpt>
      <trkpt lat="46.85417" lon="6.72289">
        <ele>446.18</ele>
        <time>2021-03-28T12:34:38.766Z</time>
      </trkpt>
      <trkpt lat="46.85418" lon="6.72291">
        <ele>446.16</ele>
        <time>2021-03-28T12:34:39.358Z</time>
      </trkpt>
      <trkpt lat="46.85418" lon="6.72293">
        <ele>446.14</ele>
        <time>2021-03-28T12:34:39.819Z</time>
      </trkpt>
      <trkpt lat="46.85419" lon="6.72294">
        <ele>446.13</ele>
        <time>2021-03-28T12:34:40.262Z</time>
      </trkpt>
      <trkpt lat="46.8542" lon="6.72296">
        <ele>446.11</ele>
        <time>2021-03-28T12:34:40.854Z</time>
      </trkpt>
      <trkpt lat="46.85421" lon="6.72296">
        <ele>446.1</ele>
        <time>2021-03-28T12:34:41.211Z</time>
      </trkpt>
      <trkpt lat="46.85422" lon="6.72297">
        <ele>446.13</ele>
        <time>2021-03-28T12:34:42.788Z</time>
      </trkpt>
      <trkpt lat="46.85423" lon="6.72298">
        <ele>446.16</ele>
        <time>2021-03-28T12:34:44.365Z</time>
      </trkpt>
      <trkpt lat="46.85425" lon="6.72298">
        <ele>446.21</ele>
        <time>2021-03-28T12:34:46.975Z</time>
      </trkpt>
      <trkpt lat="46.85426" lon="6.72297">
        <ele>446.25</ele>
        <time>2021-03-28T12:34:48.722Z</time>
      </trkpt>
      <trkpt lat="46.85428" lon="6.72296">
        <ele>446.3</ele>
        <time>2021-03-28T12:34:51.438Z</time>
      </trkpt>
      <trkpt lat="46.85429" lon="6.72295">
        <ele>446.33</ele>
        <time>2021-03-28T12:34:53.014Z</time>
      </trkpt>
      <trkpt lat="46.8543" lon="6.72294">
        <ele>446.36</ele>
        <time>2021-03-28T12:34:54.591Z</time>
      </trkpt>
      <trkpt lat="46.8543" lon="6.72292">
        <ele>446.4</ele>
        <time>2021-03-28T12:34:56.471Z</time>
      </trkpt>
      <trkpt lat="46.85437" lon="6.72297">
        <ele>446.51</ele>
        <time>2021-03-28T12:35:05.475Z</time>
      </trkpt>
      <trkpt lat="46.85446" lon="6.72304">
        <ele>446.47</ele>
        <time>2021-03-28T12:35:15.151Z</time>
      </trkpt>
      <trkpt lat="46.85469" lon="6.72324">
        <ele>446.49</ele>
        <time>2021-03-28T12:35:42.264Z</time>
      </trkpt>
      <trkpt lat="46.8548" lon="6.72336">
        <ele>446.44</ele>
        <time>2021-03-28T12:35:55.343Z</time>
      </trkpt>
      <trkpt lat="46.85495" lon="6.7235">
        <ele>446.39</ele>
        <time>2021-03-28T12:36:12.511Z</time>
      </trkpt>
      <trkpt lat="46.85564" lon="6.72423">
        <ele>448.16</ele>
        <time>2021-03-28T12:37:58.360Z</time>
      </trkpt>
      <trkpt lat="46.8556" lon="6.72435">
        <ele>448.06</ele>
        <time>2021-03-28T12:38:01.584Z</time>
      </trkpt>
      <trkpt lat="46.8556" lon="6.72444">
        <ele>448.13</ele>
        <time>2021-03-28T12:38:08.497Z</time>
      </trkpt>
      <trkpt lat="46.85561" lon="6.72455">
        <ele>448.33</ele>
        <time>2021-03-28T12:38:18.563Z</time>
      </trkpt>
      <trkpt lat="46.85564" lon="6.7248">
        <ele>448.44</ele>
        <time>2021-03-28T12:38:37.106Z</time>
      </trkpt>
      <trkpt lat="46.85567" lon="6.72501">
        <ele>448.4</ele>
        <time>2021-03-28T12:38:51.276Z</time>
      </trkpt>
      <trkpt lat="46.8557" lon="6.7252">
        <ele>448.55</ele>
        <time>2021-03-28T12:39:06.236Z</time>
      </trkpt>
      <trkpt lat="46.85573" lon="6.7254">
        <ele>448.75</ele>
        <time>2021-03-28T12:39:22.447Z</time>
      </trkpt>
      <trkpt lat="46.85575" lon="6.72554">
        <ele>448.88</ele>
        <time>2021-03-28T12:39:33.653Z</time>
      </trkpt>
      <trkpt lat="46.85579" lon="6.72565">
        <ele>449.06</ele>
        <time>2021-03-28T12:39:44.283Z</time>
      </trkpt>
      <trkpt lat="46.85584" lon="6.72582">
        <ele>448.95</ele>
        <time>2021-03-28T12:39:48.888Z</time>
      </trkpt>
      <trkpt lat="46.85591" lon="6.72608">
        <ele>448.94</ele>
        <time>2021-03-28T12:40:07.963Z</time>
      </trkpt>
      <trkpt lat="46.85593" lon="6.72618">
        <ele>448.62</ele>
        <time>2021-03-28T12:40:09.703Z</time>
      </trkpt>
      <trkpt lat="46.85595" lon="6.72629">
        <ele>448.48</ele>
        <time>2021-03-28T12:40:12.219Z</time>
      </trkpt>
      <trkpt lat="46.85597" lon="6.72641">
        <ele>448.41</ele>
        <time>2021-03-28T12:40:15.309Z</time>
      </trkpt>
      <trkpt lat="46.85598" lon="6.72653">
        <ele>448.1</ele>
        <time>2021-03-28T12:40:17.474Z</time>
      </trkpt>
      <trkpt lat="46.85599" lon="6.72676">
        <ele>447.93</ele>
        <time>2021-03-28T12:40:23.050Z</time>
      </trkpt>
      <trkpt lat="46.85601" lon="6.72699">
        <ele>447.75</ele>
        <time>2021-03-28T12:40:28.619Z</time>
      </trkpt>
      <trkpt lat="46.85603" lon="6.72717">
        <ele>447.62</ele>
        <time>2021-03-28T12:40:33.053Z</time>
      </trkpt>
      <trkpt lat="46.85606" lon="6.72736">
        <ele>447.66</ele>
        <time>2021-03-28T12:40:46.850Z</time>
      </trkpt>
      <trkpt lat="46.85609" lon="6.72752">
        <ele>447.28</ele>
        <time>2021-03-28T12:40:49.942Z</time>
      </trkpt>
      <trkpt lat="46.85613" lon="6.72767">
        <ele>447.15</ele>
        <time>2021-03-28T12:40:53.786Z</time>
      </trkpt>
      <trkpt lat="46.85617" lon="6.7278">
        <ele>446.83</ele>
        <time>2021-03-28T12:40:56.460Z</time>
      </trkpt>
      <trkpt lat="46.85622" lon="6.72792">
        <ele>446.8</ele>
        <time>2021-03-28T12:41:05.688Z</time>
      </trkpt>
      <trkpt lat="46.8561" lon="6.72808">
        <ele>446.21</ele>
        <time>2021-03-28T12:41:09.990Z</time>
      </trkpt>
      <trkpt lat="46.85595" lon="6.72827">
        <ele>445.93</ele>
        <time>2021-03-28T12:41:16.718Z</time>
      </trkpt>
      <trkpt lat="46.8553" lon="6.7291">
        <ele>446.21</ele>
        <time>2021-03-28T12:42:46.212Z</time>
      </trkpt>
      <trkpt lat="46.85511" lon="6.72934">
        <ele>446.28</ele>
        <time>2021-03-28T12:43:12.139Z</time>
      </trkpt>
      <trkpt lat="46.85506" lon="6.7294">
        <ele>446.43</ele>
        <time>2021-03-28T12:43:20.403Z</time>
      </trkpt>
      <trkpt lat="46.85506" lon="6.72941">
        <ele>446.43</ele>
        <time>2021-03-28T12:43:21.091Z</time>
      </trkpt>
      <trkpt lat="46.8547" lon="6.72987">
        <ele>446.58</ele>
        <time>2021-03-28T12:44:10.622Z</time>
      </trkpt>
      <trkpt lat="46.8545" lon="6.73012">
        <ele>446.41</ele>
        <time>2021-03-28T12:44:34.713Z</time>
      </trkpt>
      <trkpt lat="46.85442" lon="6.73023">
        <ele>446.19</ele>
        <time>2021-03-28T12:44:38.178Z</time>
      </trkpt>
      <trkpt lat="46.8544" lon="6.73026">
        <ele>446.1</ele>
        <time>2021-03-28T12:44:38.975Z</time>
      </trkpt>
      <trkpt lat="46.85439" lon="6.7303">
        <ele>446.01</ele>
        <time>2021-03-28T12:44:39.790Z</time>
      </trkpt>
      <trkpt lat="46.85436" lon="6.73039">
        <ele>445.84</ele>
        <time>2021-03-28T12:44:41.835Z</time>
      </trkpt>
      <trkpt lat="46.85434" lon="6.73038">
        <ele>445.95</ele>
        <time>2021-03-28T12:44:45.605Z</time>
      </trkpt>
      <trkpt lat="46.85431" lon="6.73038">
        <ele>445.95</ele>
        <time>2021-03-28T12:44:48.624Z</time>
      </trkpt>
      <trkpt lat="46.85412" lon="6.73052">
        <ele>445.95</ele>
        <time>2021-03-28T12:45:10.033Z</time>
      </trkpt>
      <trkpt lat="46.85407" lon="6.73057">
        <ele>445.97</ele>
        <time>2021-03-28T12:45:16.318Z</time>
      </trkpt>
      <trkpt lat="46.85404" lon="6.73062">
        <ele>446</ele>
        <time>2021-03-28T12:45:21.190Z</time>
      </trkpt>
      <trkpt lat="46.85402" lon="6.73068">
        <ele>446</ele>
        <time>2021-03-28T12:45:25.783Z</time>
      </trkpt>
      <trkpt lat="46.85401" lon="6.73076">
        <ele>445.9</ele>
        <time>2021-03-28T12:45:27.581Z</time>
      </trkpt>
      <trkpt lat="46.85403" lon="6.73092">
        <ele>445.58</ele>
        <time>2021-03-28T12:45:30.764Z</time>
      </trkpt>
      <trkpt lat="46.85403" lon="6.73098">
        <ele>445.47</ele>
        <time>2021-03-28T12:45:31.964Z</time>
      </trkpt>
      <trkpt lat="46.85402" lon="6.73105">
        <ele>445.39</ele>
        <time>2021-03-28T12:45:33.576Z</time>
      </trkpt>
      <trkpt lat="46.854" lon="6.73112">
        <ele>445.34</ele>
        <time>2021-03-28T12:45:35.440Z</time>
      </trkpt>
      <trkpt lat="46.85392" lon="6.73126">
        <ele>445.15</ele>
        <time>2021-03-28T12:45:39.611Z</time>
      </trkpt>
      <trkpt lat="46.85389" lon="6.73131">
        <ele>445.04</ele>
        <time>2021-03-28T12:45:40.980Z</time>
      </trkpt>
      <trkpt lat="46.85378" lon="6.73147">
        <ele>444.54</ele>
        <time>2021-03-28T12:45:45.262Z</time>
      </trkpt>
      <trkpt lat="46.85375" lon="6.73151">
        <ele>444.23</ele>
        <time>2021-03-28T12:45:46.166Z</time>
      </trkpt>
      <trkpt lat="46.85371" lon="6.73154">
        <ele>443.93</ele>
        <time>2021-03-28T12:45:47.167Z</time>
      </trkpt>
      <trkpt lat="46.85371" lon="6.73157">
        <ele>443.8</ele>
        <time>2021-03-28T12:45:47.596Z</time>
      </trkpt>
      <trkpt lat="46.8537" lon="6.73161">
        <ele>443.5</ele>
        <time>2021-03-28T12:45:48.245Z</time>
      </trkpt>
      <trkpt lat="46.85365" lon="6.73171">
        <ele>442.54</ele>
        <time>2021-03-28T12:45:50.131Z</time>
      </trkpt>
      <trkpt lat="46.85359" lon="6.73185">
        <ele>441.23</ele>
        <time>2021-03-28T12:45:52.647Z</time>
      </trkpt>
      <trkpt lat="46.85357" lon="6.73192">
        <ele>440.54</ele>
        <time>2021-03-28T12:45:53.802Z</time>
      </trkpt>
      <trkpt lat="46.85356" lon="6.73201">
        <ele>439.94</ele>
        <time>2021-03-28T12:45:55.190Z</time>
      </trkpt>
      <trkpt lat="46.85358" lon="6.73209">
        <ele>439.39</ele>
        <time>2021-03-28T12:45:56.487Z</time>
      </trkpt>
      <trkpt lat="46.8536" lon="6.73217">
        <ele>438.79</ele>
        <time>2021-03-28T12:45:57.784Z</time>
      </trkpt>
      <trkpt lat="46.85364" lon="6.73223">
        <ele>438.22</ele>
        <time>2021-03-28T12:45:59.060Z</time>
      </trkpt>
      <trkpt lat="46.85371" lon="6.73232">
        <ele>437.32</ele>
        <time>2021-03-28T12:46:01.136Z</time>
      </trkpt>
      <trkpt lat="46.85377" lon="6.73238">
        <ele>436.66</ele>
        <time>2021-03-28T12:46:02.754Z</time>
      </trkpt>
      <trkpt lat="46.85384" lon="6.73243">
        <ele>436.05</ele>
        <time>2021-03-28T12:46:04.489Z</time>
      </trkpt>
      <trkpt lat="46.85399" lon="6.73251">
        <ele>435.5</ele>
        <time>2021-03-28T12:46:08.798Z</time>
      </trkpt>
      <trkpt lat="46.85444" lon="6.73273">
        <ele>435.28</ele>
        <time>2021-03-28T12:46:53.377Z</time>
      </trkpt>
      <trkpt lat="46.8546" lon="6.73281">
        <ele>435.03</ele>
        <time>2021-03-28T12:46:59.061Z</time>
      </trkpt>
      <trkpt lat="46.85481" lon="6.73292">
        <ele>434.94</ele>
        <time>2021-03-28T12:47:20.201Z</time>
      </trkpt>
      <trkpt lat="46.85493" lon="6.73299">
        <ele>434.75</ele>
        <time>2021-03-28T12:47:24.549Z</time>
      </trkpt>
      <trkpt lat="46.855" lon="6.73304">
        <ele>434.51</ele>
        <time>2021-03-28T12:47:26.731Z</time>
      </trkpt>
      <trkpt lat="46.85507" lon="6.73313">
        <ele>434.4</ele>
        <time>2021-03-28T12:47:29.986Z</time>
      </trkpt>
      <trkpt lat="46.85513" lon="6.73323">
        <ele>433.59</ele>
        <time>2021-03-28T12:47:32.011Z</time>
      </trkpt>
      <trkpt lat="46.85519" lon="6.73335">
        <ele>433.67</ele>
        <time>2021-03-28T12:47:43.035Z</time>
      </trkpt>
      <trkpt lat="46.85525" lon="6.7335">
        <ele>433.74</ele>
        <time>2021-03-28T12:47:55.675Z</time>
      </trkpt>
      <trkpt lat="46.85532" lon="6.73367">
        <ele>434.28</ele>
        <time>2021-03-28T12:48:17.163Z</time>
      </trkpt>
      <trkpt lat="46.85535" lon="6.73375">
        <ele>434.35</ele>
        <time>2021-03-28T12:48:24.160Z</time>
      </trkpt>
      <trkpt lat="46.85551" lon="6.73407">
        <ele>434.57</ele>
        <time>2021-03-28T12:48:53.629Z</time>
      </trkpt>
      <trkpt lat="46.8557" lon="6.73447">
        <ele>434.55</ele>
        <time>2021-03-28T12:49:26.837Z</time>
      </trkpt>
      <trkpt lat="46.85586" lon="6.7348">
        <ele>434.25</ele>
        <time>2021-03-28T12:49:36.619Z</time>
      </trkpt>
      <trkpt lat="46.85602" lon="6.7351">
        <ele>434.17</ele>
        <time>2021-03-28T12:50:01.620Z</time>
      </trkpt>
      <trkpt lat="46.85631" lon="6.73568">
        <ele>434.53</ele>
        <time>2021-03-28T12:50:54.619Z</time>
      </trkpt>
      <trkpt lat="46.85673" lon="6.73646">
        <ele>434.92</ele>
        <time>2021-03-28T12:52:06.729Z</time>
      </trkpt>
      <trkpt lat="46.85687" lon="6.73671">
        <ele>434.69</ele>
        <time>2021-03-28T12:52:14.587Z</time>
      </trkpt>
      <trkpt lat="46.85687" lon="6.7367">
        <ele>434.69</ele>
        <time>2021-03-28T12:52:15.275Z</time>
      </trkpt>
      <trkpt lat="46.8573" lon="6.73749">
        <ele>434.46</ele>
        <time>2021-03-28T12:53:21.380Z</time>
      </trkpt>
      <trkpt lat="46.85737" lon="6.73761">
        <ele>434.44</ele>
        <time>2021-03-28T12:53:31.934Z</time>
      </trkpt>
      <trkpt lat="46.85745" lon="6.73774">
        <ele>434.36</ele>
        <time>2021-03-28T12:53:42.849Z</time>
      </trkpt>
      <trkpt lat="46.85751" lon="6.73785">
        <ele>434.29</ele>
        <time>2021-03-28T12:53:46.419Z</time>
      </trkpt>
      <trkpt lat="46.85755" lon="6.73794">
        <ele>434.16</ele>
        <time>2021-03-28T12:53:48.799Z</time>
      </trkpt>
      <trkpt lat="46.85784" lon="6.73846">
        <ele>433.93</ele>
        <time>2021-03-28T12:54:31.678Z</time>
      </trkpt>
      <trkpt lat="46.85808" lon="6.73889">
        <ele>433.54</ele>
        <time>2021-03-28T12:54:45.199Z</time>
      </trkpt>
      <trkpt lat="46.85827" lon="6.73926">
        <ele>433</ele>
        <time>2021-03-28T12:54:55.541Z</time>
      </trkpt>
      <trkpt lat="46.85869" lon="6.74">
        <ele>434.35</ele>
        <time>2021-03-28T12:56:17.040Z</time>
      </trkpt>
      <trkpt lat="46.85878" lon="6.74013">
        <ele>434.91</ele>
        <time>2021-03-28T12:56:38.451Z</time>
      </trkpt>
      <trkpt lat="46.85894" lon="6.74041">
        <ele>435.7</ele>
        <time>2021-03-28T12:57:13.815Z</time>
      </trkpt>
      <trkpt lat="46.85903" lon="6.7406">
        <ele>436</ele>
        <time>2021-03-28T12:57:33.066Z</time>
      </trkpt>
      <trkpt lat="46.85905" lon="6.74068">
        <ele>436.09</ele>
        <time>2021-03-28T12:57:39.894Z</time>
      </trkpt>
      <trkpt lat="46.85909" lon="6.7408">
        <ele>436.15</ele>
        <time>2021-03-28T12:57:49.668Z</time>
      </trkpt>
      <trkpt lat="46.85919" lon="6.74104">
        <ele>436.52</ele>
        <time>2021-03-28T12:58:13.147Z</time>
      </trkpt>
      <trkpt lat="46.85922" lon="6.74116">
        <ele>436.6</ele>
        <time>2021-03-28T12:58:22.743Z</time>
      </trkpt>
      <trkpt lat="46.85935" lon="6.74163">
        <ele>437.12</ele>
        <time>2021-03-28T12:59:03.185Z</time>
      </trkpt>
      <trkpt lat="46.8594" lon="6.74186">
        <ele>437.34</ele>
        <time>2021-03-28T12:59:22.101Z</time>
      </trkpt>
      <trkpt lat="46.85944" lon="6.74195">
        <ele>437.58</ele>
        <time>2021-03-28T12:59:32.645Z</time>
      </trkpt>
      <trkpt lat="46.85949" lon="6.74211">
        <ele>437.65</ele>
        <time>2021-03-28T12:59:45.431Z</time>
      </trkpt>
      <trkpt lat="46.85961" lon="6.74267">
        <ele>438.24</ele>
        <time>2021-03-28T13:00:32.096Z</time>
      </trkpt>
      <trkpt lat="46.85966" lon="6.74284">
        <ele>438.53</ele>
        <time>2021-03-28T13:00:48.212Z</time>
      </trkpt>
      <trkpt lat="46.85974" lon="6.74316">
        <ele>438.7</ele>
        <time>2021-03-28T13:01:13.335Z</time>
      </trkpt>
      <trkpt lat="46.85978" lon="6.74336">
        <ele>438.84</ele>
        <time>2021-03-28T13:01:29.091Z</time>
      </trkpt>
      <trkpt lat="46.85981" lon="6.74347">
        <ele>438.93</ele>
        <time>2021-03-28T13:01:38.164Z</time>
      </trkpt>
      <trkpt lat="46.85986" lon="6.74367">
        <ele>439.11</ele>
        <time>2021-03-28T13:01:54.687Z</time>
      </trkpt>
      <trkpt lat="46.8599" lon="6.7438">
        <ele>439.24</ele>
        <time>2021-03-28T13:02:05.861Z</time>
      </trkpt>
      <trkpt lat="46.85995" lon="6.74394">
        <ele>439.25</ele>
        <time>2021-03-28T13:02:16.822Z</time>
      </trkpt>
      <trkpt lat="46.85999" lon="6.74407">
        <ele>439.41</ele>
        <time>2021-03-28T13:02:28.366Z</time>
      </trkpt>
      <trkpt lat="46.86006" lon="6.74432">
        <ele>439.64</ele>
        <time>2021-03-28T13:02:49.347Z</time>
      </trkpt>
      <trkpt lat="46.86011" lon="6.74446">
        <ele>439.72</ele>
        <time>2021-03-28T13:03:01.006Z</time>
      </trkpt>
      <trkpt lat="46.86016" lon="6.74457">
        <ele>439.76</ele>
        <time>2021-03-28T13:03:10.479Z</time>
      </trkpt>
      <trkpt lat="46.86021" lon="6.7447">
        <ele>439.82</ele>
        <time>2021-03-28T13:03:21.326Z</time>
      </trkpt>
      <trkpt lat="46.86026" lon="6.74484">
        <ele>439.95</ele>
        <time>2021-03-28T13:03:33.541Z</time>
      </trkpt>
      <trkpt lat="46.86033" lon="6.74501">
        <ele>440.12</ele>
        <time>2021-03-28T13:03:48.965Z</time>
      </trkpt>
      <trkpt lat="46.86038" lon="6.74514">
        <ele>440.1</ele>
        <time>2021-03-28T13:03:58.928Z</time>
      </trkpt>
      <trkpt lat="46.86062" lon="6.74565">
        <ele>440.56</ele>
        <time>2021-03-28T13:04:46.236Z</time>
      </trkpt>
      <trkpt lat="46.86074" lon="6.7459">
        <ele>440.83</ele>
        <time>2021-03-28T13:05:10.075Z</time>
      </trkpt>
      <trkpt lat="46.86092" lon="6.74619">
        <ele>440.95</ele>
        <time>2021-03-28T13:05:38.178Z</time>
      </trkpt>
      <trkpt lat="46.86099" lon="6.74634">
        <ele>441.11</ele>
        <time>2021-03-28T13:05:52.345Z</time>
      </trkpt>
      <trkpt lat="46.86111" lon="6.74651">
        <ele>441.28</ele>
        <time>2021-03-28T13:06:10.885Z</time>
      </trkpt>
      <trkpt lat="46.8612" lon="6.74667">
        <ele>441.36</ele>
        <time>2021-03-28T13:06:25.918Z</time>
      </trkpt>
      <trkpt lat="46.86128" lon="6.74678">
        <ele>441.52</ele>
        <time>2021-03-28T13:06:38.669Z</time>
      </trkpt>
      <trkpt lat="46.86142" lon="6.74699">
        <ele>441.76</ele>
        <time>2021-03-28T13:07:01.334Z</time>
      </trkpt>
      <trkpt lat="46.86151" lon="6.74714">
        <ele>441.88</ele>
        <time>2021-03-28T13:07:16.268Z</time>
      </trkpt>
      <trkpt lat="46.86162" lon="6.74729">
        <ele>442.1</ele>
        <time>2021-03-28T13:07:33.743Z</time>
      </trkpt>
      <trkpt lat="46.86168" lon="6.74736">
        <ele>442.07</ele>
        <time>2021-03-28T13:07:41.030Z</time>
      </trkpt>
      <trkpt lat="46.86177" lon="6.7475">
        <ele>442.27</ele>
        <time>2021-03-28T13:07:56.394Z</time>
      </trkpt>
      <trkpt lat="46.86184" lon="6.7476">
        <ele>442.35</ele>
        <time>2021-03-28T13:08:07.038Z</time>
      </trkpt>
      <trkpt lat="46.86189" lon="6.74764">
        <ele>442.39</ele>
        <time>2021-03-28T13:08:13.167Z</time>
      </trkpt>
      <trkpt lat="46.86194" lon="6.7477">
        <ele>442.41</ele>
        <time>2021-03-28T13:08:19.865Z</time>
      </trkpt>
      <trkpt lat="46.86201" lon="6.7478">
        <ele>442.54</ele>
        <time>2021-03-28T13:08:31.075Z</time>
      </trkpt>
      <trkpt lat="46.86215" lon="6.74793">
        <ele>442.84</ele>
        <time>2021-03-28T13:08:51.077Z</time>
      </trkpt>
      <trkpt lat="46.8622" lon="6.74798">
        <ele>442.75</ele>
        <time>2021-03-28T13:08:53.112Z</time>
      </trkpt>
      <trkpt lat="46.8625" lon="6.7483">
        <ele>443.68</ele>
        <time>2021-03-28T13:09:41.600Z</time>
      </trkpt>
      <trkpt lat="46.8628" lon="6.74867">
        <ele>443.85</ele>
        <time>2021-03-28T13:10:22.721Z</time>
      </trkpt>
      <trkpt lat="46.86289" lon="6.74878">
        <ele>443.81</ele>
        <time>2021-03-28T13:10:33.937Z</time>
      </trkpt>
      <trkpt lat="46.86303" lon="6.74896">
        <ele>444.03</ele>
        <time>2021-03-28T13:10:54.968Z</time>
      </trkpt>
      <trkpt lat="46.86336" lon="6.74936">
        <ele>444.41</ele>
        <time>2021-03-28T13:11:41.910Z</time>
      </trkpt>
      <trkpt lat="46.86351" lon="6.74953">
        <ele>444.57</ele>
        <time>2021-03-28T13:12:02.603Z</time>
      </trkpt>
      <trkpt lat="46.86358" lon="6.7496">
        <ele>444.67</ele>
        <time>2021-03-28T13:12:12.170Z</time>
      </trkpt>
      <trkpt lat="46.86357" lon="6.7496">
        <ele>444.67</ele>
        <time>2021-03-28T13:12:13.176Z</time>
      </trkpt>
      <trkpt lat="46.86363" lon="6.74966">
        <ele>444.76</ele>
        <time>2021-03-28T13:12:21.426Z</time>
      </trkpt>
      <trkpt lat="46.86382" lon="6.74988">
        <ele>445</ele>
        <time>2021-03-28T13:12:48.244Z</time>
      </trkpt>
      <trkpt lat="46.86394" lon="6.75001">
        <ele>445.2</ele>
        <time>2021-03-28T13:13:05.372Z</time>
      </trkpt>
      <trkpt lat="46.86404" lon="6.75014">
        <ele>445.26</ele>
        <time>2021-03-28T13:13:19.412Z</time>
      </trkpt>
      <trkpt lat="46.86415" lon="6.75029">
        <ele>445.43</ele>
        <time>2021-03-28T13:13:36.294Z</time>
      </trkpt>
      <trkpt lat="46.86435" lon="6.75054">
        <ele>445.57</ele>
        <time>2021-03-28T13:14:04.125Z</time>
      </trkpt>
      <trkpt lat="46.8646" lon="6.75079">
        <ele>445.94</ele>
        <time>2021-03-28T13:14:38.440Z</time>
      </trkpt>
      <trkpt lat="46.86462" lon="6.75081">
        <ele>446.17</ele>
        <time>2021-03-28T13:14:44.481Z</time>
      </trkpt>
      <trkpt lat="46.86462" lon="6.75084">
        <ele>445.97</ele>
        <time>2021-03-28T13:14:44.938Z</time>
      </trkpt>
      <trkpt lat="46.86462" lon="6.75091">
        <ele>446.16</ele>
        <time>2021-03-28T13:14:52.506Z</time>
      </trkpt>
      <trkpt lat="46.86463" lon="6.75098">
        <ele>445.79</ele>
        <time>2021-03-28T13:14:53.595Z</time>
      </trkpt>
      <trkpt lat="46.86466" lon="6.75107">
        <ele>445.72</ele>
        <time>2021-03-28T13:14:56.035Z</time>
      </trkpt>
      <trkpt lat="46.86471" lon="6.75115">
        <ele>445.84</ele>
        <time>2021-03-28T13:15:04.791Z</time>
      </trkpt>
      <trkpt lat="46.86476" lon="6.75122">
        <ele>446.1</ele>
        <time>2021-03-28T13:15:15.409Z</time>
      </trkpt>
      <trkpt lat="46.86479" lon="6.75126">
        <ele>446.17</ele>
        <time>2021-03-28T13:15:20.261Z</time>
      </trkpt>
      <trkpt lat="46.86483" lon="6.75128">
        <ele>446.33</ele>
        <time>2021-03-28T13:15:26.772Z</time>
      </trkpt>
      <trkpt lat="46.86492" lon="6.75133">
        <ele>446.98</ele>
        <time>2021-03-28T13:15:45.908Z</time>
      </trkpt>
      <trkpt lat="46.86495" lon="6.75135">
        <ele>447.14</ele>
        <time>2021-03-28T13:15:51.653Z</time>
      </trkpt>
      <trkpt lat="46.86514" lon="6.75154">
        <ele>448.52</ele>
        <time>2021-03-28T13:16:34.978Z</time>
      </trkpt>
      <trkpt lat="46.86519" lon="6.75159">
        <ele>448.76</ele>
        <time>2021-03-28T13:16:44.545Z</time>
      </trkpt>
      <trkpt lat="46.86546" lon="6.75181">
        <ele>450.47</ele>
        <time>2021-03-28T13:17:40.894Z</time>
      </trkpt>
      <trkpt lat="46.86555" lon="6.75188">
        <ele>451.35</ele>
        <time>2021-03-28T13:18:04.432Z</time>
      </trkpt>
      <trkpt lat="46.86567" lon="6.75197">
        <ele>452.43</ele>
        <time>2021-03-28T13:18:33.987Z</time>
      </trkpt>
      <trkpt lat="46.86588" lon="6.7521">
        <ele>454.6</ele>
        <time>2021-03-28T13:19:30.972Z</time>
      </trkpt>
      <trkpt lat="46.86593" lon="6.75212">
        <ele>454.91</ele>
        <time>2021-03-28T13:19:40.718Z</time>
      </trkpt>
      <trkpt lat="46.86598" lon="6.75212">
        <ele>455.94</ele>
        <time>2021-03-28T13:20:00.125Z</time>
      </trkpt>
      <trkpt lat="46.86601" lon="6.75211">
        <ele>456.79</ele>
        <time>2021-03-28T13:20:12.068Z</time>
      </trkpt>
      <trkpt lat="46.86605" lon="6.75217">
        <ele>456.71</ele>
        <time>2021-03-28T13:20:14.014Z</time>
      </trkpt>
      <trkpt lat="46.86614" lon="6.75227">
        <ele>456.39</ele>
        <time>2021-03-28T13:20:17.264Z</time>
      </trkpt>
      <trkpt lat="46.86621" lon="6.75235">
        <ele>456.15</ele>
        <time>2021-03-28T13:20:19.855Z</time>
      </trkpt>
      <trkpt lat="46.86629" lon="6.75243">
        <ele>456.1</ele>
        <time>2021-03-28T13:20:28.892Z</time>
      </trkpt>
      <trkpt lat="46.86637" lon="6.7525">
        <ele>455.64</ele>
        <time>2021-03-28T13:20:31.081Z</time>
      </trkpt>
      <trkpt lat="46.86658" lon="6.75266">
        <ele>453.87</ele>
        <time>2021-03-28T13:20:36.353Z</time>
      </trkpt>
      <trkpt lat="46.86671" lon="6.75275">
        <ele>452.47</ele>
        <time>2021-03-28T13:20:39.556Z</time>
      </trkpt>
      <trkpt lat="46.86681" lon="6.7528">
        <ele>452.33</ele>
        <time>2021-03-28T13:20:43.178Z</time>
      </trkpt>
      <trkpt lat="46.86699" lon="6.75288">
        <ele>451.35</ele>
        <time>2021-03-28T13:20:47.492Z</time>
      </trkpt>
      <trkpt lat="46.86723" lon="6.75295">
        <ele>449.02</ele>
        <time>2021-03-28T13:20:52.941Z</time>
      </trkpt>
      <trkpt lat="46.8673" lon="6.75296">
        <ele>448.32</ele>
        <time>2021-03-28T13:20:54.507Z</time>
      </trkpt>
      <trkpt lat="46.86738" lon="6.75297">
        <ele>447.92</ele>
        <time>2021-03-28T13:20:56.384Z</time>
      </trkpt>
      <trkpt lat="46.86743" lon="6.75296">
        <ele>447.69</ele>
        <time>2021-03-28T13:20:57.610Z</time>
      </trkpt>
      <trkpt lat="46.86749" lon="6.75295">
        <ele>447.45</ele>
        <time>2021-03-28T13:20:59.157Z</time>
      </trkpt>
      <trkpt lat="46.86754" lon="6.75294">
        <ele>447.21</ele>
        <time>2021-03-28T13:21:00.361Z</time>
      </trkpt>
      <trkpt lat="46.86761" lon="6.75295">
        <ele>446.94</ele>
        <time>2021-03-28T13:21:02.187Z</time>
      </trkpt>
      <trkpt lat="46.86766" lon="6.75296">
        <ele>446.67</ele>
        <time>2021-03-28T13:21:03.330Z</time>
      </trkpt>
      <trkpt lat="46.86775" lon="6.75299">
        <ele>446.24</ele>
        <time>2021-03-28T13:21:05.551Z</time>
      </trkpt>
      <trkpt lat="46.86782" lon="6.75301">
        <ele>445.92</ele>
        <time>2021-03-28T13:21:07.294Z</time>
      </trkpt>
      <trkpt lat="46.86794" lon="6.75308">
        <ele>445.1</ele>
        <time>2021-03-28T13:21:09.995Z</time>
      </trkpt>
      <trkpt lat="46.86807" lon="6.75316">
        <ele>443.88</ele>
        <time>2021-03-28T13:21:13.135Z</time>
      </trkpt>
      <trkpt lat="46.86812" lon="6.7532">
        <ele>443.58</ele>
        <time>2021-03-28T13:21:14.436Z</time>
      </trkpt>
      <trkpt lat="46.86817" lon="6.75324">
        <ele>443.31</ele>
        <time>2021-03-28T13:21:15.797Z</time>
      </trkpt>
      <trkpt lat="46.86824" lon="6.75328">
        <ele>442.95</ele>
        <time>2021-03-28T13:21:17.584Z</time>
      </trkpt>
      <trkpt lat="46.86836" lon="6.75337">
        <ele>441.99</ele>
        <time>2021-03-28T13:21:20.587Z</time>
      </trkpt>
      <trkpt lat="46.86874" lon="6.75363">
        <ele>440.64</ele>
        <time>2021-03-28T13:21:32.173Z</time>
      </trkpt>
      <trkpt lat="46.86878" lon="6.75367">
        <ele>440.39</ele>
        <time>2021-03-28T13:21:33.289Z</time>
      </trkpt>
      <trkpt lat="46.86885" lon="6.75372">
        <ele>440.1</ele>
        <time>2021-03-28T13:21:35.334Z</time>
      </trkpt>
      <trkpt lat="46.8689" lon="6.75376">
        <ele>439.95</ele>
        <time>2021-03-28T13:21:37.009Z</time>
      </trkpt>
      <trkpt lat="46.869" lon="6.75388">
        <ele>438.82</ele>
        <time>2021-03-28T13:21:39.889Z</time>
      </trkpt>
      <trkpt lat="46.86914" lon="6.75401">
        <ele>437.64</ele>
        <time>2021-03-28T13:21:43.581Z</time>
      </trkpt>
      <trkpt lat="46.86919" lon="6.75405">
        <ele>437.26</ele>
        <time>2021-03-28T13:21:44.743Z</time>
      </trkpt>
      <trkpt lat="46.86925" lon="6.75408">
        <ele>437.15</ele>
        <time>2021-03-28T13:21:46.809Z</time>
      </trkpt>
      <trkpt lat="46.86928" lon="6.75409">
        <ele>437.16</ele>
        <time>2021-03-28T13:21:50.000Z</time>
      </trkpt>
      <trkpt lat="46.86933" lon="6.75408">
        <ele>437.71</ele>
        <time>2021-03-28T13:22:04.473Z</time>
      </trkpt>
      <trkpt lat="46.86939" lon="6.75409">
        <ele>437.53</ele>
        <time>2021-03-28T13:22:06.182Z</time>
      </trkpt>
      <trkpt lat="46.86943" lon="6.7541">
        <ele>437.35</ele>
        <time>2021-03-28T13:22:07.179Z</time>
      </trkpt>
      <trkpt lat="46.86947" lon="6.75414">
        <ele>436.93</ele>
        <time>2021-03-28T13:22:08.257Z</time>
      </trkpt>
      <trkpt lat="46.8695" lon="6.75419">
        <ele>436.69</ele>
        <time>2021-03-28T13:22:09.294Z</time>
      </trkpt>
      <trkpt lat="46.86953" lon="6.75422">
        <ele>436.5</ele>
        <time>2021-03-28T13:22:10.126Z</time>
      </trkpt>
      <trkpt lat="46.86957" lon="6.75426">
        <ele>436.03</ele>
        <time>2021-03-28T13:22:11.205Z</time>
      </trkpt>
      <trkpt lat="46.86963" lon="6.75433">
        <ele>435.56</ele>
        <time>2021-03-28T13:22:12.838Z</time>
      </trkpt>
      <trkpt lat="46.86966" lon="6.75437">
        <ele>435.19</ele>
        <time>2021-03-28T13:22:13.742Z</time>
      </trkpt>
      <trkpt lat="46.8697" lon="6.7544">
        <ele>434.85</ele>
        <time>2021-03-28T13:22:14.743Z</time>
      </trkpt>
      <trkpt lat="46.86973" lon="6.75443">
        <ele>434.6</ele>
        <time>2021-03-28T13:22:15.552Z</time>
      </trkpt>
      <trkpt lat="46.86976" lon="6.75446">
        <ele>434.41</ele>
        <time>2021-03-28T13:22:16.384Z</time>
      </trkpt>
      <trkpt lat="46.86977" lon="6.75448">
        <ele>434.25</ele>
        <time>2021-03-28T13:22:16.761Z</time>
      </trkpt>
      <trkpt lat="46.86979" lon="6.75451">
        <ele>434.2</ele>
        <time>2021-03-28T13:22:17.693Z</time>
      </trkpt>
      <trkpt lat="46.86982" lon="6.75454">
        <ele>434.32</ele>
        <time>2021-03-28T13:22:22.935Z</time>
      </trkpt>
      <trkpt lat="46.86987" lon="6.75457">
        <ele>434.37</ele>
        <time>2021-03-28T13:22:28.877Z</time>
      </trkpt>
      <trkpt lat="46.86991" lon="6.7546">
        <ele>434.25</ele>
        <time>2021-03-28T13:22:30.192Z</time>
      </trkpt>
      <trkpt lat="46.86996" lon="6.75464">
        <ele>434.13</ele>
        <time>2021-03-28T13:22:31.969Z</time>
      </trkpt>
      <trkpt lat="46.87004" lon="6.75469">
        <ele>434.01</ele>
        <time>2021-03-28T13:22:34.930Z</time>
      </trkpt>
      <trkpt lat="46.87009" lon="6.75471">
        <ele>434.06</ele>
        <time>2021-03-28T13:22:40.652Z</time>
      </trkpt>
      <trkpt lat="46.87013" lon="6.75474">
        <ele>434.02</ele>
        <time>2021-03-28T13:22:42.283Z</time>
      </trkpt>
      <trkpt lat="46.87016" lon="6.75477">
        <ele>433.94</ele>
        <time>2021-03-28T13:22:43.404Z</time>
      </trkpt>
      <trkpt lat="46.87021" lon="6.75483">
        <ele>433.67</ele>
        <time>2021-03-28T13:22:45.030Z</time>
      </trkpt>
      <trkpt lat="46.8703" lon="6.75491">
        <ele>433.21</ele>
        <time>2021-03-28T13:22:47.631Z</time>
      </trkpt>
      <trkpt lat="46.87034" lon="6.75492">
        <ele>433.32</ele>
        <time>2021-03-28T13:22:53.064Z</time>
      </trkpt>
      <trkpt lat="46.87038" lon="6.75491">
        <ele>433.66</ele>
        <time>2021-03-28T13:23:02.234Z</time>
      </trkpt>
      <trkpt lat="46.87043" lon="6.75491">
        <ele>432.83</ele>
        <time>2021-03-28T13:23:03.347Z</time>
      </trkpt>
      <trkpt lat="46.87048" lon="6.75494">
        <ele>431.81</ele>
        <time>2021-03-28T13:23:04.550Z</time>
      </trkpt>
      <trkpt lat="46.87054" lon="6.75498">
        <ele>432.14</ele>
        <time>2021-03-28T13:23:16.156Z</time>
      </trkpt>
      <trkpt lat="46.87058" lon="6.75501">
        <ele>433.26</ele>
        <time>2021-03-28T13:23:33.603Z</time>
      </trkpt>
      <trkpt lat="46.87061" lon="6.75503">
        <ele>433.74</ele>
        <time>2021-03-28T13:23:46.399Z</time>
      </trkpt>
      <trkpt lat="46.87067" lon="6.75504">
        <ele>433.87</ele>
        <time>2021-03-28T13:23:53.969Z</time>
      </trkpt>
      <trkpt lat="46.87073" lon="6.75507">
        <ele>433.82</ele>
        <time>2021-03-28T13:23:56.301Z</time>
      </trkpt>
      <trkpt lat="46.87078" lon="6.7551">
        <ele>433.7</ele>
        <time>2021-03-28T13:23:57.964Z</time>
      </trkpt>
      <trkpt lat="46.8708" lon="6.75513">
        <ele>433.52</ele>
        <time>2021-03-28T13:23:58.566Z</time>
      </trkpt>
      <trkpt lat="46.87084" lon="6.75515">
        <ele>433.47</ele>
        <time>2021-03-28T13:24:00.041Z</time>
      </trkpt>
      <trkpt lat="46.8709" lon="6.75519">
        <ele>433.34</ele>
        <time>2021-03-28T13:24:02.129Z</time>
      </trkpt>
      <trkpt lat="46.87099" lon="6.75521">
        <ele>433.15</ele>
        <time>2021-03-28T13:24:04.973Z</time>
      </trkpt>
      <trkpt lat="46.87114" lon="6.75525">
        <ele>433.51</ele>
        <time>2021-03-28T13:24:24.550Z</time>
      </trkpt>
      <trkpt lat="46.87122" lon="6.75525">
        <ele>433.76</ele>
        <time>2021-03-28T13:24:35.829Z</time>
      </trkpt>
      <trkpt lat="46.87129" lon="6.75528">
        <ele>434.43</ele>
        <time>2021-03-28T13:24:53.512Z</time>
      </trkpt>
      <trkpt lat="46.87133" lon="6.75529">
        <ele>434.91</ele>
        <time>2021-03-28T13:25:06.434Z</time>
      </trkpt>
      <trkpt lat="46.87142" lon="6.75529">
        <ele>436.07</ele>
        <time>2021-03-28T13:25:39.213Z</time>
      </trkpt>
      <trkpt lat="46.87152" lon="6.7553">
        <ele>436.11</ele>
        <time>2021-03-28T13:25:49.681Z</time>
      </trkpt>
      <trkpt lat="46.87164" lon="6.75533">
        <ele>435.79</ele>
        <time>2021-03-28T13:25:53.260Z</time>
      </trkpt>
      <trkpt lat="46.87175" lon="6.75536">
        <ele>435.46</ele>
        <time>2021-03-28T13:25:56.438Z</time>
      </trkpt>
      <trkpt lat="46.87198" lon="6.75543">
        <ele>434.6</ele>
        <time>2021-03-28T13:26:02.644Z</time>
      </trkpt>
      <trkpt lat="46.87245" lon="6.75559">
        <ele>432.75</ele>
        <time>2021-03-28T13:26:15.178Z</time>
      </trkpt>
      <trkpt lat="46.87259" lon="6.75564">
        <ele>432.7</ele>
        <time>2021-03-28T13:26:28.948Z</time>
      </trkpt>
      <trkpt lat="46.8727" lon="6.75566">
        <ele>434.84</ele>
        <time>2021-03-28T13:27:11.971Z</time>
      </trkpt>
      <trkpt lat="46.87272" lon="6.75567">
        <ele>434.79</ele>
        <time>2021-03-28T13:27:12.611Z</time>
      </trkpt>
      <trkpt lat="46.87275" lon="6.75568">
        <ele>434.36</ele>
        <time>2021-03-28T13:27:13.296Z</time>
      </trkpt>
      <trkpt lat="46.87279" lon="6.7557">
        <ele>433.32</ele>
        <time>2021-03-28T13:27:14.237Z</time>
      </trkpt>
      <trkpt lat="46.87282" lon="6.75572">
        <ele>432.75</ele>
        <time>2021-03-28T13:27:14.971Z</time>
      </trkpt>
      <trkpt lat="46.87294" lon="6.75576">
        <ele>432.55</ele>
        <time>2021-03-28T13:27:19.034Z</time>
      </trkpt>
      <trkpt lat="46.87301" lon="6.75578">
        <ele>432.84</ele>
        <time>2021-03-28T13:27:30.470Z</time>
      </trkpt>
      <trkpt lat="46.87308" lon="6.75582">
        <ele>432.89</ele>
        <time>2021-03-28T13:27:38.523Z</time>
      </trkpt>
      <trkpt lat="46.87318" lon="6.75587">
        <ele>432.89</ele>
        <time>2021-03-28T13:27:49.158Z</time>
      </trkpt>
      <trkpt lat="46.87331" lon="6.75593">
        <ele>432.89</ele>
        <time>2021-03-28T13:28:02.875Z</time>
      </trkpt>
      <trkpt lat="46.87336" lon="6.75595">
        <ele>432.84</ele>
        <time>2021-03-28T13:28:04.737Z</time>
      </trkpt>
      <trkpt lat="46.87345" lon="6.75599">
        <ele>432.75</ele>
        <time>2021-03-28T13:28:08.120Z</time>
      </trkpt>
      <trkpt lat="46.87349" lon="6.75602">
        <ele>432.7</ele>
        <time>2021-03-28T13:28:09.703Z</time>
      </trkpt>
      <trkpt lat="46.87355" lon="6.75605">
        <ele>432.6</ele>
        <time>2021-03-28T13:28:11.809Z</time>
      </trkpt>
      <trkpt lat="46.87371" lon="6.75614">
        <ele>432.36</ele>
        <time>2021-03-28T13:28:17.629Z</time>
      </trkpt>
      <trkpt lat="46.87391" lon="6.75627">
        <ele>432.07</ele>
        <time>2021-03-28T13:28:25.130Z</time>
      </trkpt>
      <trkpt lat="46.87403" lon="6.75633">
        <ele>431.89</ele>
        <time>2021-03-28T13:28:29.425Z</time>
      </trkpt>
      <trkpt lat="46.8741" lon="6.75637">
        <ele>431.94</ele>
        <time>2021-03-28T13:28:37.478Z</time>
      </trkpt>
      <trkpt lat="46.87414" lon="6.75639">
        <ele>431.89</ele>
        <time>2021-03-28T13:28:38.953Z</time>
      </trkpt>
      <trkpt lat="46.87419" lon="6.75643">
        <ele>432.07</ele>
        <time>2021-03-28T13:28:47.022Z</time>
      </trkpt>
      <trkpt lat="46.87424" lon="6.75645">
        <ele>431.98</ele>
        <time>2021-03-28T13:28:48.711Z</time>
      </trkpt>
      <trkpt lat="46.87434" lon="6.75652">
        <ele>431.74</ele>
        <time>2021-03-28T13:28:52.143Z</time>
      </trkpt>
      <trkpt lat="46.87442" lon="6.7566">
        <ele>432.32</ele>
        <time>2021-03-28T13:29:10.371Z</time>
      </trkpt>
      <trkpt lat="46.87448" lon="6.75667">
        <ele>432.17</ele>
        <time>2021-03-28T13:29:12.806Z</time>
      </trkpt>
      <trkpt lat="46.87453" lon="6.7567">
        <ele>431.84</ele>
        <time>2021-03-28T13:29:13.957Z</time>
      </trkpt>
      <trkpt lat="46.87468" lon="6.75673">
        <ele>431.6</ele>
        <time>2021-03-28T13:29:18.980Z</time>
      </trkpt>
      <trkpt lat="46.8747" lon="6.75674">
        <ele>431.58</ele>
        <time>2021-03-28T13:29:19.741Z</time>
      </trkpt>
      <trkpt lat="46.87474" lon="6.75676">
        <ele>431.43</ele>
        <time>2021-03-28T13:29:20.870Z</time>
      </trkpt>
      <trkpt lat="46.87478" lon="6.75679">
        <ele>431.53</ele>
        <time>2021-03-28T13:29:26.551Z</time>
      </trkpt>
      <trkpt lat="46.87486" lon="6.75685">
        <ele>431.53</ele>
        <time>2021-03-28T13:29:35.597Z</time>
      </trkpt>
      <trkpt lat="46.87489" lon="6.75688">
        <ele>431.53</ele>
        <time>2021-03-28T13:29:39.254Z</time>
      </trkpt>
      <trkpt lat="46.87518" lon="6.75714">
        <ele>431.67</ele>
        <time>2021-03-28T13:30:14.821Z</time>
      </trkpt>
      <trkpt lat="46.8754" lon="6.75734">
        <ele>431.72</ele>
        <time>2021-03-28T13:30:41.355Z</time>
      </trkpt>
      <trkpt lat="46.87549" lon="6.75743">
        <ele>431.81</ele>
        <time>2021-03-28T13:30:53.223Z</time>
      </trkpt>
      <trkpt lat="46.87566" lon="6.75763">
        <ele>431.72</ele>
        <time>2021-03-28T13:31:13.870Z</time>
      </trkpt>
      <trkpt lat="46.87573" lon="6.7577">
        <ele>431.69</ele>
        <time>2021-03-28T13:31:21.964Z</time>
      </trkpt>
      <trkpt lat="46.87569" lon="6.75775">
        <ele>431.37</ele>
        <time>2021-03-28T13:31:23.086Z</time>
      </trkpt>
      <trkpt lat="46.87567" lon="6.75776">
        <ele>431.14</ele>
        <time>2021-03-28T13:31:23.557Z</time>
      </trkpt>
      <trkpt lat="46.87566" lon="6.75779">
        <ele>430.93</ele>
        <time>2021-03-28T13:31:24.065Z</time>
      </trkpt>
      <trkpt lat="46.87566" lon="6.75782">
        <ele>430.76</ele>
        <time>2021-03-28T13:31:24.522Z</time>
      </trkpt>
      <trkpt lat="46.87569" lon="6.75788">
        <ele>430.78</ele>
        <time>2021-03-28T13:31:29.826Z</time>
      </trkpt>
      <trkpt lat="46.87574" lon="6.75794">
        <ele>430.7</ele>
        <time>2021-03-28T13:31:32.068Z</time>
      </trkpt>
      <trkpt lat="46.87578" lon="6.75799">
        <ele>430.74</ele>
        <time>2021-03-28T13:31:37.759Z</time>
      </trkpt>
      <trkpt lat="46.87585" lon="6.75819">
        <ele>430.39</ele>
        <time>2021-03-28T13:31:42.453Z</time>
      </trkpt>
      <trkpt lat="46.87588" lon="6.75824">
        <ele>430.33</ele>
        <time>2021-03-28T13:31:44.013Z</time>
      </trkpt>
      <trkpt lat="46.87633" lon="6.75897">
        <ele>430.66</ele>
        <time>2021-03-28T13:32:54.814Z</time>
      </trkpt>
      <trkpt lat="46.87652" lon="6.7593">
        <ele>430.52</ele>
        <time>2021-03-28T13:33:22.480Z</time>
      </trkpt>
      <trkpt lat="46.87657" lon="6.75951">
        <ele>430.59</ele>
        <time>2021-03-28T13:33:38.450Z</time>
      </trkpt>
      <trkpt lat="46.87661" lon="6.75965">
        <ele>430.28</ele>
        <time>2021-03-28T13:33:41.383Z</time>
      </trkpt>
      <trkpt lat="46.87665" lon="6.75969">
        <ele>430.29</ele>
        <time>2021-03-28T13:33:46.353Z</time>
      </trkpt>
      <trkpt lat="46.87674" lon="6.75972">
        <ele>430.53</ele>
        <time>2021-03-28T13:33:58.545Z</time>
      </trkpt>
      <trkpt lat="46.87684" lon="6.75977">
        <ele>430.41</ele>
        <time>2021-03-28T13:34:02.257Z</time>
      </trkpt>
      <trkpt lat="46.87695" lon="6.75986">
        <ele>430.64</ele>
        <time>2021-03-28T13:34:17.485Z</time>
      </trkpt>
      <trkpt lat="46.87708" lon="6.75996">
        <ele>430.41</ele>
        <time>2021-03-28T13:34:22.369Z</time>
      </trkpt>
      <trkpt lat="46.8772" lon="6.76007">
        <ele>430.34</ele>
        <time>2021-03-28T13:34:35.616Z</time>
      </trkpt>
      <trkpt lat="46.87724" lon="6.7601">
        <ele>430.36</ele>
        <time>2021-03-28T13:34:40.331Z</time>
      </trkpt>
      <trkpt lat="46.87727" lon="6.76009">
        <ele>430.39</ele>
        <time>2021-03-28T13:34:43.731Z</time>
      </trkpt>
      <trkpt lat="46.87731" lon="6.76012">
        <ele>430.57</ele>
        <time>2021-03-28T13:34:50.874Z</time>
      </trkpt>
      <trkpt lat="46.87733" lon="6.76013">
        <ele>430.54</ele>
        <time>2021-03-28T13:34:51.590Z</time>
      </trkpt>
      <trkpt lat="46.87752" lon="6.76022">
        <ele>430.85</ele>
        <time>2021-03-28T13:35:15.018Z</time>
      </trkpt>
      <trkpt lat="46.87763" lon="6.76028">
        <ele>430.68</ele>
        <time>2021-03-28T13:35:18.979Z</time>
      </trkpt>
      <trkpt lat="46.87764" lon="6.76027">
        <ele>430.58</ele>
        <time>2021-03-28T13:35:19.249Z</time>
      </trkpt>
      <trkpt lat="46.87772" lon="6.76002">
        <ele>431.88</ele>
        <time>2021-03-28T13:35:57.141Z</time>
      </trkpt>
      <trkpt lat="46.87773" lon="6.76">
        <ele>432.14</ele>
        <time>2021-03-28T13:36:03.715Z</time>
      </trkpt>
    </trkseg>
  </trk>
</gpx>